<?xml version="1.0" encoding="UTF-8"?>
<gpx
 version="1.0"
creator="GPSBabel - http://www.gpsbabel.org"
xmlns:xsi="http://www.w3.org/2001/XMLSchema-instance"
xmlns="http://www.topografix.com/GPX/1/0"
xsi:schemaLocation="http://www.topografix.com/GPX/1/0 http://www.topografix.com/GPX/1/0/gpx.xsd">
<time>2013-04-23T19:16:48Z</time>
<bounds minlat="48.533616760" minlon="2.431666720" maxlat="48.600733340" maxlon="2.451883370"/>
<trk>
<trkseg>
<trkpt lat="48.600733340" lon="2.433066830">
  <ele>85.000000</ele>
<time>2013-04-23T17:12:44Z</time>
</trkpt>
<trkpt lat="48.600733340" lon="2.433066830">
  <ele>85.000000</ele>
<time>2013-04-23T17:12:53Z</time>
</trkpt>
<trkpt lat="48.600650020" lon="2.433000110">
  <ele>85.000000</ele>
<time>2013-04-23T17:12:54Z</time>
</trkpt>
<trkpt lat="48.600566700" lon="2.432983350">
  <ele>85.000000</ele>
<time>2013-04-23T17:12:56Z</time>
</trkpt>
<trkpt lat="48.600500150" lon="2.433016710">
  <ele>84.000000</ele>
<time>2013-04-23T17:12:57Z</time>
</trkpt>
<trkpt lat="48.600433430" lon="2.433050070">
  <ele>85.000000</ele>
<time>2013-04-23T17:12:58Z</time>
</trkpt>
<trkpt lat="48.600366710" lon="2.433083430">
  <ele>84.000000</ele>
<time>2013-04-23T17:12:59Z</time>
</trkpt>
<trkpt lat="48.600300160" lon="2.433133390">
  <ele>85.000000</ele>
<time>2013-04-23T17:13:00Z</time>
</trkpt>
<trkpt lat="48.600216680" lon="2.433183340">
  <ele>85.000000</ele>
<time>2013-04-23T17:13:01Z</time>
</trkpt>
<trkpt lat="48.600133360" lon="2.433216700">
  <ele>85.000000</ele>
<time>2013-04-23T17:13:02Z</time>
</trkpt>
<trkpt lat="48.600066810" lon="2.433266830">
  <ele>85.000000</ele>
<time>2013-04-23T17:13:03Z</time>
</trkpt>
<trkpt lat="48.599983490" lon="2.433300020">
  <ele>85.000000</ele>
<time>2013-04-23T17:13:04Z</time>
</trkpt>
<trkpt lat="48.599900010" lon="2.433350140">
  <ele>86.000000</ele>
<time>2013-04-23T17:13:05Z</time>
</trkpt>
<trkpt lat="48.599833450" lon="2.433383330">
  <ele>86.000000</ele>
<time>2013-04-23T17:13:06Z</time>
</trkpt>
<trkpt lat="48.599833450" lon="2.433383330">
  <ele>86.000000</ele>
<time>2013-04-23T17:13:06Z</time>
</trkpt>
<trkpt lat="48.599766730" lon="2.433433460">
  <ele>85.000000</ele>
<time>2013-04-23T17:13:07Z</time>
</trkpt>
<trkpt lat="48.599700020" lon="2.433466820">
  <ele>86.000000</ele>
<time>2013-04-23T17:13:08Z</time>
</trkpt>
<trkpt lat="48.599633460" lon="2.433500010">
  <ele>86.000000</ele>
<time>2013-04-23T17:13:09Z</time>
</trkpt>
<trkpt lat="48.599566740" lon="2.433566730">
  <ele>86.000000</ele>
<time>2013-04-23T17:13:11Z</time>
</trkpt>
<trkpt lat="48.599550150" lon="2.433683410">
  <ele>86.000000</ele>
<time>2013-04-23T17:13:13Z</time>
</trkpt>
<trkpt lat="48.599566740" lon="2.433766720">
  <ele>86.000000</ele>
<time>2013-04-23T17:13:14Z</time>
</trkpt>
<trkpt lat="48.599583340" lon="2.433850040">
  <ele>86.000000</ele>
<time>2013-04-23T17:13:15Z</time>
</trkpt>
<trkpt lat="48.599616700" lon="2.433950120">
  <ele>86.000000</ele>
<time>2013-04-23T17:13:16Z</time>
</trkpt>
<trkpt lat="48.599633460" lon="2.434050030">
  <ele>86.000000</ele>
<time>2013-04-23T17:13:17Z</time>
</trkpt>
<trkpt lat="48.599650060" lon="2.434166710">
  <ele>86.000000</ele>
<time>2013-04-23T17:13:18Z</time>
</trkpt>
<trkpt lat="48.599666820" lon="2.434266790">
  <ele>86.000000</ele>
<time>2013-04-23T17:13:19Z</time>
</trkpt>
<trkpt lat="48.599683420" lon="2.434383460">
  <ele>86.000000</ele>
<time>2013-04-23T17:13:20Z</time>
</trkpt>
<trkpt lat="48.599700020" lon="2.434483380">
  <ele>86.000000</ele>
<time>2013-04-23T17:13:21Z</time>
</trkpt>
<trkpt lat="48.599733380" lon="2.434600050">
  <ele>86.000000</ele>
<time>2013-04-23T17:13:22Z</time>
</trkpt>
<trkpt lat="48.599750140" lon="2.434700130">
  <ele>86.000000</ele>
<time>2013-04-23T17:13:23Z</time>
</trkpt>
<trkpt lat="48.599750140" lon="2.434800040">
  <ele>86.000000</ele>
<time>2013-04-23T17:13:24Z</time>
</trkpt>
<trkpt lat="48.599766730" lon="2.434916720">
  <ele>86.000000</ele>
<time>2013-04-23T17:13:25Z</time>
</trkpt>
<trkpt lat="48.599766730" lon="2.435016800">
  <ele>86.000000</ele>
<time>2013-04-23T17:13:26Z</time>
</trkpt>
<trkpt lat="48.599783500" lon="2.435116710">
  <ele>86.000000</ele>
<time>2013-04-23T17:13:27Z</time>
</trkpt>
<trkpt lat="48.599800090" lon="2.435233390">
  <ele>86.000000</ele>
<time>2013-04-23T17:13:28Z</time>
</trkpt>
<trkpt lat="48.599800090" lon="2.435316700">
  <ele>86.000000</ele>
<time>2013-04-23T17:13:29Z</time>
</trkpt>
<trkpt lat="48.599766730" lon="2.435400020">
  <ele>86.000000</ele>
<time>2013-04-23T17:13:30Z</time>
</trkpt>
<trkpt lat="48.599733380" lon="2.435450140">
  <ele>86.000000</ele>
<time>2013-04-23T17:13:31Z</time>
</trkpt>
<trkpt lat="48.599666820" lon="2.435500100">
  <ele>86.000000</ele>
<time>2013-04-23T17:13:32Z</time>
</trkpt>
<trkpt lat="48.599616700" lon="2.435533460">
  <ele>87.000000</ele>
<time>2013-04-23T17:13:33Z</time>
</trkpt>
<trkpt lat="48.599566740" lon="2.435600010">
  <ele>86.000000</ele>
<time>2013-04-23T17:13:34Z</time>
</trkpt>
<trkpt lat="48.599516790" lon="2.435666730">
  <ele>86.000000</ele>
<time>2013-04-23T17:13:35Z</time>
</trkpt>
<trkpt lat="48.599466830" lon="2.435766810">
  <ele>86.000000</ele>
<time>2013-04-23T17:13:36Z</time>
</trkpt>
<trkpt lat="48.599416710" lon="2.435850130">
  <ele>86.000000</ele>
<time>2013-04-23T17:13:37Z</time>
</trkpt>
<trkpt lat="48.599366750" lon="2.435933440">
  <ele>86.000000</ele>
<time>2013-04-23T17:13:38Z</time>
</trkpt>
<trkpt lat="48.599316790" lon="2.436000160">
  <ele>87.000000</ele>
<time>2013-04-23T17:13:39Z</time>
</trkpt>
<trkpt lat="48.599250070" lon="2.436066720">
  <ele>87.000000</ele>
<time>2013-04-23T17:13:40Z</time>
</trkpt>
<trkpt lat="48.599183350" lon="2.436116670">
  <ele>88.000000</ele>
<time>2013-04-23T17:13:41Z</time>
</trkpt>
<trkpt lat="48.599116800" lon="2.436166800">
  <ele>88.000000</ele>
<time>2013-04-23T17:13:42Z</time>
</trkpt>
<trkpt lat="48.599050080" lon="2.436216750">
  <ele>88.000000</ele>
<time>2013-04-23T17:13:43Z</time>
</trkpt>
<trkpt lat="48.598966770" lon="2.436266710">
  <ele>88.000000</ele>
<time>2013-04-23T17:13:44Z</time>
</trkpt>
<trkpt lat="48.598900050" lon="2.436300070">
  <ele>88.000000</ele>
<time>2013-04-23T17:13:45Z</time>
</trkpt>
<trkpt lat="48.598833490" lon="2.436350030">
  <ele>88.000000</ele>
<time>2013-04-23T17:13:46Z</time>
</trkpt>
<trkpt lat="48.598766770" lon="2.436383390">
  <ele>88.000000</ele>
<time>2013-04-23T17:13:47Z</time>
</trkpt>
<trkpt lat="48.598700050" lon="2.436433340">
  <ele>88.000000</ele>
<time>2013-04-23T17:13:48Z</time>
</trkpt>
<trkpt lat="48.598633330" lon="2.436483470">
  <ele>88.000000</ele>
<time>2013-04-23T17:13:49Z</time>
</trkpt>
<trkpt lat="48.598550020" lon="2.436533420">
  <ele>88.000000</ele>
<time>2013-04-23T17:13:50Z</time>
</trkpt>
<trkpt lat="48.598483470" lon="2.436566780">
  <ele>88.000000</ele>
<time>2013-04-23T17:13:51Z</time>
</trkpt>
<trkpt lat="48.598400150" lon="2.436600140">
  <ele>88.000000</ele>
<time>2013-04-23T17:13:52Z</time>
</trkpt>
<trkpt lat="48.598333430" lon="2.436633330">
  <ele>88.000000</ele>
<time>2013-04-23T17:13:53Z</time>
</trkpt>
<trkpt lat="48.598250110" lon="2.436650100">
  <ele>88.000000</ele>
<time>2013-04-23T17:13:54Z</time>
</trkpt>
<trkpt lat="48.598183390" lon="2.436683460">
  <ele>88.000000</ele>
<time>2013-04-23T17:13:55Z</time>
</trkpt>
<trkpt lat="48.598116670" lon="2.436700050">
  <ele>88.000000</ele>
<time>2013-04-23T17:13:56Z</time>
</trkpt>
<trkpt lat="48.598033360" lon="2.436716820">
  <ele>88.000000</ele>
<time>2013-04-23T17:13:57Z</time>
</trkpt>
<trkpt lat="48.597950040" lon="2.436733410">
  <ele>88.000000</ele>
<time>2013-04-23T17:13:58Z</time>
</trkpt>
<trkpt lat="48.597866730" lon="2.436733410">
  <ele>88.000000</ele>
<time>2013-04-23T17:13:59Z</time>
</trkpt>
<trkpt lat="48.597800010" lon="2.436733410">
  <ele>88.000000</ele>
<time>2013-04-23T17:14:00Z</time>
</trkpt>
<trkpt lat="48.597716690" lon="2.436750010">
  <ele>88.000000</ele>
<time>2013-04-23T17:14:01Z</time>
</trkpt>
<trkpt lat="48.597650140" lon="2.436750010">
  <ele>88.000000</ele>
<time>2013-04-23T17:14:02Z</time>
</trkpt>
<trkpt lat="48.597566820" lon="2.436766770">
  <ele>88.000000</ele>
<time>2013-04-23T17:14:03Z</time>
</trkpt>
<trkpt lat="48.597483340" lon="2.436766770">
  <ele>88.000000</ele>
<time>2013-04-23T17:14:04Z</time>
</trkpt>
<trkpt lat="48.597416780" lon="2.436766770">
  <ele>88.000000</ele>
<time>2013-04-23T17:14:05Z</time>
</trkpt>
<trkpt lat="48.597333470" lon="2.436766770">
  <ele>88.000000</ele>
<time>2013-04-23T17:14:06Z</time>
</trkpt>
<trkpt lat="48.597266750" lon="2.436783370">
  <ele>88.000000</ele>
<time>2013-04-23T17:14:07Z</time>
</trkpt>
<trkpt lat="48.597183430" lon="2.436783370">
  <ele>88.000000</ele>
<time>2013-04-23T17:14:08Z</time>
</trkpt>
<trkpt lat="48.597116710" lon="2.436800130">
  <ele>88.000000</ele>
<time>2013-04-23T17:14:09Z</time>
</trkpt>
<trkpt lat="48.597050160" lon="2.436800130">
  <ele>89.000000</ele>
<time>2013-04-23T17:14:10Z</time>
</trkpt>
<trkpt lat="48.596983440" lon="2.436800130">
  <ele>89.000000</ele>
<time>2013-04-23T17:14:11Z</time>
</trkpt>
<trkpt lat="48.596933480" lon="2.436783370">
  <ele>89.000000</ele>
<time>2013-04-23T17:14:12Z</time>
</trkpt>
<trkpt lat="48.596866760" lon="2.436783370">
  <ele>89.000000</ele>
<time>2013-04-23T17:14:13Z</time>
</trkpt>
<trkpt lat="48.596800040" lon="2.436766770">
  <ele>90.000000</ele>
<time>2013-04-23T17:14:14Z</time>
</trkpt>
<trkpt lat="48.596733490" lon="2.436766770">
  <ele>90.000000</ele>
<time>2013-04-23T17:14:15Z</time>
</trkpt>
<trkpt lat="48.596683370" lon="2.436750010">
  <ele>90.000000</ele>
<time>2013-04-23T17:14:16Z</time>
</trkpt>
<trkpt lat="48.596600050" lon="2.436716820">
  <ele>90.000000</ele>
<time>2013-04-23T17:14:17Z</time>
</trkpt>
<trkpt lat="48.596550100" lon="2.436700050">
  <ele>90.000000</ele>
<time>2013-04-23T17:14:18Z</time>
</trkpt>
<trkpt lat="48.596466780" lon="2.436666690">
  <ele>90.000000</ele>
<time>2013-04-23T17:14:19Z</time>
</trkpt>
<trkpt lat="48.596400060" lon="2.436650100">
  <ele>90.000000</ele>
<time>2013-04-23T17:14:20Z</time>
</trkpt>
<trkpt lat="48.596333340" lon="2.436633330">
  <ele>90.000000</ele>
<time>2013-04-23T17:14:21Z</time>
</trkpt>
<trkpt lat="48.596266790" lon="2.436616740">
  <ele>90.000000</ele>
<time>2013-04-23T17:14:22Z</time>
</trkpt>
<trkpt lat="48.596216830" lon="2.436583380">
  <ele>89.000000</ele>
<time>2013-04-23T17:14:23Z</time>
</trkpt>
<trkpt lat="48.596150110" lon="2.436550020">
  <ele>89.000000</ele>
<time>2013-04-23T17:14:24Z</time>
</trkpt>
<trkpt lat="48.596083390" lon="2.436516830">
  <ele>89.000000</ele>
<time>2013-04-23T17:14:25Z</time>
</trkpt>
<trkpt lat="48.596016670" lon="2.436466700">
  <ele>89.000000</ele>
<time>2013-04-23T17:14:26Z</time>
</trkpt>
<trkpt lat="48.595950120" lon="2.436416750">
  <ele>89.000000</ele>
<time>2013-04-23T17:14:27Z</time>
</trkpt>
<trkpt lat="48.595883400" lon="2.436383390">
  <ele>89.000000</ele>
<time>2013-04-23T17:14:28Z</time>
</trkpt>
<trkpt lat="48.595816680" lon="2.436316830">
  <ele>89.000000</ele>
<time>2013-04-23T17:14:29Z</time>
</trkpt>
<trkpt lat="48.595750130" lon="2.436266710">
  <ele>89.000000</ele>
<time>2013-04-23T17:14:30Z</time>
</trkpt>
<trkpt lat="48.595700000" lon="2.436216750">
  <ele>89.000000</ele>
<time>2013-04-23T17:14:31Z</time>
</trkpt>
<trkpt lat="48.595633450" lon="2.436166800">
  <ele>89.000000</ele>
<time>2013-04-23T17:14:32Z</time>
</trkpt>
<trkpt lat="48.595566730" lon="2.436116670">
  <ele>89.000000</ele>
<time>2013-04-23T17:14:33Z</time>
</trkpt>
<trkpt lat="48.595500010" lon="2.436066720">
  <ele>89.000000</ele>
<time>2013-04-23T17:14:34Z</time>
</trkpt>
<trkpt lat="48.595433460" lon="2.436016760">
  <ele>89.000000</ele>
<time>2013-04-23T17:14:35Z</time>
</trkpt>
<trkpt lat="48.595366740" lon="2.435950040">
  <ele>89.000000</ele>
<time>2013-04-23T17:14:36Z</time>
</trkpt>
<trkpt lat="48.595300020" lon="2.435900080">
  <ele>89.000000</ele>
<time>2013-04-23T17:14:37Z</time>
</trkpt>
<trkpt lat="48.595250060" lon="2.435833360">
  <ele>89.000000</ele>
<time>2013-04-23T17:14:38Z</time>
</trkpt>
<trkpt lat="48.595183340" lon="2.435783410">
  <ele>90.000000</ele>
<time>2013-04-23T17:14:39Z</time>
</trkpt>
<trkpt lat="48.595133390" lon="2.435716690">
  <ele>89.000000</ele>
<time>2013-04-23T17:14:40Z</time>
</trkpt>
<trkpt lat="48.595066830" lon="2.435666730">
  <ele>89.000000</ele>
<time>2013-04-23T17:14:41Z</time>
</trkpt>
<trkpt lat="48.595016710" lon="2.435616780">
  <ele>89.000000</ele>
<time>2013-04-23T17:14:42Z</time>
</trkpt>
<trkpt lat="48.594950160" lon="2.435566820">
  <ele>90.000000</ele>
<time>2013-04-23T17:14:43Z</time>
</trkpt>
<trkpt lat="48.594900030" lon="2.435500100">
  <ele>90.000000</ele>
<time>2013-04-23T17:14:44Z</time>
</trkpt>
<trkpt lat="48.594833480" lon="2.435450140">
  <ele>90.000000</ele>
<time>2013-04-23T17:14:45Z</time>
</trkpt>
<trkpt lat="48.594783360" lon="2.435383420">
  <ele>90.000000</ele>
<time>2013-04-23T17:14:46Z</time>
</trkpt>
<trkpt lat="48.594716810" lon="2.435333470">
  <ele>90.000000</ele>
<time>2013-04-23T17:14:47Z</time>
</trkpt>
<trkpt lat="48.594666680" lon="2.435266750">
  <ele>90.000000</ele>
<time>2013-04-23T17:14:48Z</time>
</trkpt>
<trkpt lat="48.594616730" lon="2.435216790">
  <ele>90.000000</ele>
<time>2013-04-23T17:14:49Z</time>
</trkpt>
<trkpt lat="48.594550010" lon="2.435166670">
  <ele>90.000000</ele>
<time>2013-04-23T17:14:50Z</time>
</trkpt>
<trkpt lat="48.594500050" lon="2.435100120">
  <ele>90.000000</ele>
<time>2013-04-23T17:14:51Z</time>
</trkpt>
<trkpt lat="48.594433500" lon="2.435050160">
  <ele>90.000000</ele>
<time>2013-04-23T17:14:52Z</time>
</trkpt>
<trkpt lat="48.594383370" lon="2.434983440">
  <ele>90.000000</ele>
<time>2013-04-23T17:14:53Z</time>
</trkpt>
<trkpt lat="48.594316820" lon="2.434933480">
  <ele>90.000000</ele>
<time>2013-04-23T17:14:54Z</time>
</trkpt>
<trkpt lat="48.594266700" lon="2.434866760">
  <ele>89.000000</ele>
<time>2013-04-23T17:14:55Z</time>
</trkpt>
<trkpt lat="48.594200150" lon="2.434816810">
  <ele>89.000000</ele>
<time>2013-04-23T17:14:56Z</time>
</trkpt>
<trkpt lat="48.594150020" lon="2.434750090">
  <ele>90.000000</ele>
<time>2013-04-23T17:14:57Z</time>
</trkpt>
<trkpt lat="48.594083470" lon="2.434700130">
  <ele>89.000000</ele>
<time>2013-04-23T17:14:58Z</time>
</trkpt>
<trkpt lat="48.594033350" lon="2.434650010">
  <ele>89.000000</ele>
<time>2013-04-23T17:14:59Z</time>
</trkpt>
<trkpt lat="48.593966790" lon="2.434600050">
  <ele>89.000000</ele>
<time>2013-04-23T17:15:00Z</time>
</trkpt>
<trkpt lat="48.593916670" lon="2.434533500">
  <ele>90.000000</ele>
<time>2013-04-23T17:15:01Z</time>
</trkpt>
<trkpt lat="48.593850120" lon="2.434483380">
  <ele>89.000000</ele>
<time>2013-04-23T17:15:02Z</time>
</trkpt>
<trkpt lat="48.593800160" lon="2.434433420">
  <ele>90.000000</ele>
<time>2013-04-23T17:15:03Z</time>
</trkpt>
<trkpt lat="48.593733440" lon="2.434366700">
  <ele>90.000000</ele>
<time>2013-04-23T17:15:04Z</time>
</trkpt>
<trkpt lat="48.593666720" lon="2.434316740">
  <ele>90.000000</ele>
<time>2013-04-23T17:15:05Z</time>
</trkpt>
<trkpt lat="48.593616760" lon="2.434266790">
  <ele>90.000000</ele>
<time>2013-04-23T17:15:06Z</time>
</trkpt>
<trkpt lat="48.593550050" lon="2.434200070">
  <ele>90.000000</ele>
<time>2013-04-23T17:15:07Z</time>
</trkpt>
<trkpt lat="48.593500090" lon="2.434150110">
  <ele>90.000000</ele>
<time>2013-04-23T17:15:08Z</time>
</trkpt>
<trkpt lat="48.593450130" lon="2.434100150">
  <ele>90.000000</ele>
<time>2013-04-23T17:15:09Z</time>
</trkpt>
<trkpt lat="48.593400010" lon="2.434066790">
  <ele>90.000000</ele>
<time>2013-04-23T17:15:10Z</time>
</trkpt>
<trkpt lat="48.593350050" lon="2.434016670">
  <ele>90.000000</ele>
<time>2013-04-23T17:15:11Z</time>
</trkpt>
<trkpt lat="48.593300100" lon="2.433966710">
  <ele>89.000000</ele>
<time>2013-04-23T17:15:12Z</time>
</trkpt>
<trkpt lat="48.593250140" lon="2.433916760">
  <ele>89.000000</ele>
<time>2013-04-23T17:15:13Z</time>
</trkpt>
<trkpt lat="48.593200020" lon="2.433866800">
  <ele>89.000000</ele>
<time>2013-04-23T17:15:14Z</time>
</trkpt>
<trkpt lat="48.593150060" lon="2.433800080">
  <ele>89.000000</ele>
<time>2013-04-23T17:15:15Z</time>
</trkpt>
<trkpt lat="48.593083340" lon="2.433750130">
  <ele>89.000000</ele>
<time>2013-04-23T17:15:16Z</time>
</trkpt>
<trkpt lat="48.593033380" lon="2.433683410">
  <ele>89.000000</ele>
<time>2013-04-23T17:15:17Z</time>
</trkpt>
<trkpt lat="48.592966830" lon="2.433633450">
  <ele>90.000000</ele>
<time>2013-04-23T17:15:18Z</time>
</trkpt>
<trkpt lat="48.592916710" lon="2.433566730">
  <ele>90.000000</ele>
<time>2013-04-23T17:15:19Z</time>
</trkpt>
<trkpt lat="48.592850160" lon="2.433516770">
  <ele>90.000000</ele>
<time>2013-04-23T17:15:20Z</time>
</trkpt>
<trkpt lat="48.592800030" lon="2.433466820">
  <ele>90.000000</ele>
<time>2013-04-23T17:15:21Z</time>
</trkpt>
<trkpt lat="48.592733480" lon="2.433416690">
  <ele>90.000000</ele>
<time>2013-04-23T17:15:22Z</time>
</trkpt>
<trkpt lat="48.592683360" lon="2.433366740">
  <ele>90.000000</ele>
<time>2013-04-23T17:15:23Z</time>
</trkpt>
<trkpt lat="48.592616800" lon="2.433316780">
  <ele>90.000000</ele>
<time>2013-04-23T17:15:24Z</time>
</trkpt>
<trkpt lat="48.592550080" lon="2.433266830">
  <ele>91.000000</ele>
<time>2013-04-23T17:15:25Z</time>
</trkpt>
<trkpt lat="48.592500130" lon="2.433200110">
  <ele>91.000000</ele>
<time>2013-04-23T17:15:26Z</time>
</trkpt>
<trkpt lat="48.592433410" lon="2.433150150">
  <ele>91.000000</ele>
<time>2013-04-23T17:15:27Z</time>
</trkpt>
<trkpt lat="48.592366690" lon="2.433100030">
  <ele>91.000000</ele>
<time>2013-04-23T17:15:28Z</time>
</trkpt>
<trkpt lat="48.592316730" lon="2.433050070">
  <ele>91.000000</ele>
<time>2013-04-23T17:15:29Z</time>
</trkpt>
<trkpt lat="48.592250010" lon="2.433000110">
  <ele>90.000000</ele>
<time>2013-04-23T17:15:30Z</time>
</trkpt>
<trkpt lat="48.592183460" lon="2.432950160">
  <ele>91.000000</ele>
<time>2013-04-23T17:15:31Z</time>
</trkpt>
<trkpt lat="48.592116740" lon="2.432900030">
  <ele>91.000000</ele>
<time>2013-04-23T17:15:32Z</time>
</trkpt>
<trkpt lat="48.592050020" lon="2.432850080">
  <ele>91.000000</ele>
<time>2013-04-23T17:15:33Z</time>
</trkpt>
<trkpt lat="48.591983470" lon="2.432816720">
  <ele>91.000000</ele>
<time>2013-04-23T17:15:34Z</time>
</trkpt>
<trkpt lat="48.591916750" lon="2.432766760">
  <ele>91.000000</ele>
<time>2013-04-23T17:15:35Z</time>
</trkpt>
<trkpt lat="48.591850030" lon="2.432733400">
  <ele>91.000000</ele>
<time>2013-04-23T17:15:36Z</time>
</trkpt>
<trkpt lat="48.591783480" lon="2.432683450">
  <ele>91.000000</ele>
<time>2013-04-23T17:15:37Z</time>
</trkpt>
<trkpt lat="48.591733350" lon="2.432650090">
  <ele>91.000000</ele>
<time>2013-04-23T17:15:38Z</time>
</trkpt>
<trkpt lat="48.591666800" lon="2.432600130">
  <ele>91.000000</ele>
<time>2013-04-23T17:15:39Z</time>
</trkpt>
<trkpt lat="48.591600080" lon="2.432566770">
  <ele>91.000000</ele>
<time>2013-04-23T17:15:40Z</time>
</trkpt>
<trkpt lat="48.591533360" lon="2.432516810">
  <ele>91.000000</ele>
<time>2013-04-23T17:15:41Z</time>
</trkpt>
<trkpt lat="48.591466810" lon="2.432466690">
  <ele>91.000000</ele>
<time>2013-04-23T17:15:42Z</time>
</trkpt>
<trkpt lat="48.591400090" lon="2.432433500">
  <ele>91.000000</ele>
<time>2013-04-23T17:15:43Z</time>
</trkpt>
<trkpt lat="48.591333370" lon="2.432383370">
  <ele>91.000000</ele>
<time>2013-04-23T17:15:44Z</time>
</trkpt>
<trkpt lat="48.591266810" lon="2.432350010">
  <ele>91.000000</ele>
<time>2013-04-23T17:15:45Z</time>
</trkpt>
<trkpt lat="48.591200090" lon="2.432300060">
  <ele>92.000000</ele>
<time>2013-04-23T17:15:46Z</time>
</trkpt>
<trkpt lat="48.591133370" lon="2.432250100">
  <ele>92.000000</ele>
<time>2013-04-23T17:15:47Z</time>
</trkpt>
<trkpt lat="48.591083420" lon="2.432200140">
  <ele>92.000000</ele>
<time>2013-04-23T17:15:48Z</time>
</trkpt>
<trkpt lat="48.591033460" lon="2.432133430">
  <ele>92.000000</ele>
<time>2013-04-23T17:15:49Z</time>
</trkpt>
<trkpt lat="48.590966740" lon="2.432083470">
  <ele>91.000000</ele>
<time>2013-04-23T17:15:50Z</time>
</trkpt>
<trkpt lat="48.590916790" lon="2.432016750">
  <ele>92.000000</ele>
<time>2013-04-23T17:15:51Z</time>
</trkpt>
<trkpt lat="48.590866830" lon="2.431950030">
  <ele>91.000000</ele>
<time>2013-04-23T17:15:52Z</time>
</trkpt>
<trkpt lat="48.590816710" lon="2.431866710">
  <ele>91.000000</ele>
<time>2013-04-23T17:15:53Z</time>
</trkpt>
<trkpt lat="48.590750150" lon="2.431783400">
  <ele>91.000000</ele>
<time>2013-04-23T17:15:54Z</time>
</trkpt>
<trkpt lat="48.590700030" lon="2.431716680">
  <ele>90.000000</ele>
<time>2013-04-23T17:15:55Z</time>
</trkpt>
<trkpt lat="48.590633480" lon="2.431666720">
  <ele>91.000000</ele>
<time>2013-04-23T17:15:56Z</time>
</trkpt>
<trkpt lat="48.590566760" lon="2.431666720">
  <ele>90.000000</ele>
<time>2013-04-23T17:15:57Z</time>
</trkpt>
<trkpt lat="48.590500040" lon="2.431683480">
  <ele>90.000000</ele>
<time>2013-04-23T17:15:58Z</time>
</trkpt>
<trkpt lat="48.590450080" lon="2.431733440">
  <ele>90.000000</ele>
<time>2013-04-23T17:15:59Z</time>
</trkpt>
<trkpt lat="48.590400130" lon="2.431800160">
  <ele>90.000000</ele>
<time>2013-04-23T17:16:00Z</time>
</trkpt>
<trkpt lat="48.590350000" lon="2.431883480">
  <ele>90.000000</ele>
<time>2013-04-23T17:16:01Z</time>
</trkpt>
<trkpt lat="48.590300050" lon="2.431950030">
  <ele>90.000000</ele>
<time>2013-04-23T17:16:02Z</time>
</trkpt>
<trkpt lat="48.590266690" lon="2.432000150">
  <ele>90.000000</ele>
<time>2013-04-23T17:16:03Z</time>
</trkpt>
<trkpt lat="48.590233490" lon="2.432050110">
  <ele>89.000000</ele>
<time>2013-04-23T17:16:04Z</time>
</trkpt>
<trkpt lat="48.590183370" lon="2.432100070">
  <ele>90.000000</ele>
<time>2013-04-23T17:16:05Z</time>
</trkpt>
<trkpt lat="48.590133410" lon="2.432133430">
  <ele>90.000000</ele>
<time>2013-04-23T17:16:06Z</time>
</trkpt>
<trkpt lat="48.590083460" lon="2.432183380">
  <ele>90.000000</ele>
<time>2013-04-23T17:16:07Z</time>
</trkpt>
<trkpt lat="48.590033330" lon="2.432216740">
  <ele>91.000000</ele>
<time>2013-04-23T17:16:08Z</time>
</trkpt>
<trkpt lat="48.589983380" lon="2.432266700">
  <ele>91.000000</ele>
<time>2013-04-23T17:16:09Z</time>
</trkpt>
<trkpt lat="48.589950020" lon="2.432316820">
  <ele>91.000000</ele>
<time>2013-04-23T17:16:10Z</time>
</trkpt>
<trkpt lat="48.589900060" lon="2.432383370">
  <ele>91.000000</ele>
<time>2013-04-23T17:16:11Z</time>
</trkpt>
<trkpt lat="48.589866700" lon="2.432450090">
  <ele>92.000000</ele>
<time>2013-04-23T17:16:12Z</time>
</trkpt>
<trkpt lat="48.589816750" lon="2.432516810">
  <ele>91.000000</ele>
<time>2013-04-23T17:16:13Z</time>
</trkpt>
<trkpt lat="48.589783390" lon="2.432566770">
  <ele>91.000000</ele>
<time>2013-04-23T17:16:14Z</time>
</trkpt>
<trkpt lat="48.589733430" lon="2.432633490">
  <ele>91.000000</ele>
<time>2013-04-23T17:16:15Z</time>
</trkpt>
<trkpt lat="48.589683470" lon="2.432700040">
  <ele>91.000000</ele>
<time>2013-04-23T17:16:16Z</time>
</trkpt>
<trkpt lat="48.589650110" lon="2.432750170">
  <ele>91.000000</ele>
<time>2013-04-23T17:16:17Z</time>
</trkpt>
<trkpt lat="48.589600160" lon="2.432816720">
  <ele>91.000000</ele>
<time>2013-04-23T17:16:18Z</time>
</trkpt>
<trkpt lat="48.589550030" lon="2.432883440">
  <ele>91.000000</ele>
<time>2013-04-23T17:16:19Z</time>
</trkpt>
<trkpt lat="48.589516670" lon="2.432950160">
  <ele>91.000000</ele>
<time>2013-04-23T17:16:20Z</time>
</trkpt>
<trkpt lat="48.589466720" lon="2.433000110">
  <ele>90.000000</ele>
<time>2013-04-23T17:16:21Z</time>
</trkpt>
<trkpt lat="48.589416760" lon="2.433066830">
  <ele>90.000000</ele>
<time>2013-04-23T17:16:22Z</time>
</trkpt>
<trkpt lat="48.589383400" lon="2.433133390">
  <ele>90.000000</ele>
<time>2013-04-23T17:16:23Z</time>
</trkpt>
<trkpt lat="48.589333440" lon="2.433183340">
  <ele>90.000000</ele>
<time>2013-04-23T17:16:24Z</time>
</trkpt>
<trkpt lat="48.589283490" lon="2.433250060">
  <ele>91.000000</ele>
<time>2013-04-23T17:16:25Z</time>
</trkpt>
<trkpt lat="48.589233360" lon="2.433300020">
  <ele>91.000000</ele>
<time>2013-04-23T17:16:26Z</time>
</trkpt>
<trkpt lat="48.589200000" lon="2.433366740">
  <ele>91.000000</ele>
<time>2013-04-23T17:16:27Z</time>
</trkpt>
<trkpt lat="48.589150050" lon="2.433433460">
  <ele>91.000000</ele>
<time>2013-04-23T17:16:28Z</time>
</trkpt>
<trkpt lat="48.589100090" lon="2.433483410">
  <ele>91.000000</ele>
<time>2013-04-23T17:16:29Z</time>
</trkpt>
<trkpt lat="48.589050140" lon="2.433550130">
  <ele>91.000000</ele>
<time>2013-04-23T17:16:30Z</time>
</trkpt>
<trkpt lat="48.589016780" lon="2.433600090">
  <ele>91.000000</ele>
<time>2013-04-23T17:16:31Z</time>
</trkpt>
<trkpt lat="48.588966820" lon="2.433666810">
  <ele>91.000000</ele>
<time>2013-04-23T17:16:32Z</time>
</trkpt>
<trkpt lat="48.588916700" lon="2.433716770">
  <ele>91.000000</ele>
<time>2013-04-23T17:16:33Z</time>
</trkpt>
<trkpt lat="48.588883340" lon="2.433783490">
  <ele>91.000000</ele>
<time>2013-04-23T17:16:34Z</time>
</trkpt>
<trkpt lat="48.588833380" lon="2.433833440">
  <ele>91.000000</ele>
<time>2013-04-23T17:16:35Z</time>
</trkpt>
<trkpt lat="48.588783420" lon="2.433900160">
  <ele>91.000000</ele>
<time>2013-04-23T17:16:36Z</time>
</trkpt>
<trkpt lat="48.588733470" lon="2.433950120">
  <ele>91.000000</ele>
<time>2013-04-23T17:16:37Z</time>
</trkpt>
<trkpt lat="48.588683340" lon="2.434016670">
  <ele>90.000000</ele>
<time>2013-04-23T17:16:38Z</time>
</trkpt>
<trkpt lat="48.588650150" lon="2.434066790">
  <ele>91.000000</ele>
<time>2013-04-23T17:16:39Z</time>
</trkpt>
<trkpt lat="48.588600030" lon="2.434133350">
  <ele>91.000000</ele>
<time>2013-04-23T17:16:40Z</time>
</trkpt>
<trkpt lat="48.588550070" lon="2.434200070">
  <ele>91.000000</ele>
<time>2013-04-23T17:16:41Z</time>
</trkpt>
<trkpt lat="48.588500120" lon="2.434250020">
  <ele>91.000000</ele>
<time>2013-04-23T17:16:42Z</time>
</trkpt>
<trkpt lat="48.588466760" lon="2.434316740">
  <ele>91.000000</ele>
<time>2013-04-23T17:16:43Z</time>
</trkpt>
<trkpt lat="48.588416800" lon="2.434366700">
  <ele>91.000000</ele>
<time>2013-04-23T17:16:44Z</time>
</trkpt>
<trkpt lat="48.588366680" lon="2.434433420">
  <ele>90.000000</ele>
<time>2013-04-23T17:16:45Z</time>
</trkpt>
<trkpt lat="48.588316720" lon="2.434500140">
  <ele>90.000000</ele>
<time>2013-04-23T17:16:46Z</time>
</trkpt>
<trkpt lat="48.588283360" lon="2.434550100">
  <ele>90.000000</ele>
<time>2013-04-23T17:16:47Z</time>
</trkpt>
<trkpt lat="48.588233400" lon="2.434616820">
  <ele>91.000000</ele>
<time>2013-04-23T17:16:48Z</time>
</trkpt>
<trkpt lat="48.588183450" lon="2.434683370">
  <ele>91.000000</ele>
<time>2013-04-23T17:16:49Z</time>
</trkpt>
<trkpt lat="48.588133490" lon="2.434750090">
  <ele>91.000000</ele>
<time>2013-04-23T17:16:50Z</time>
</trkpt>
<trkpt lat="48.588100130" lon="2.434800040">
  <ele>90.000000</ele>
<time>2013-04-23T17:16:51Z</time>
</trkpt>
<trkpt lat="48.588050010" lon="2.434866760">
  <ele>90.000000</ele>
<time>2013-04-23T17:16:52Z</time>
</trkpt>
<trkpt lat="48.588000050" lon="2.434933480">
  <ele>91.000000</ele>
<time>2013-04-23T17:16:53Z</time>
</trkpt>
<trkpt lat="48.587950100" lon="2.434983440">
  <ele>90.000000</ele>
<time>2013-04-23T17:16:54Z</time>
</trkpt>
<trkpt lat="48.587900140" lon="2.435050160">
  <ele>91.000000</ele>
<time>2013-04-23T17:16:55Z</time>
</trkpt>
<trkpt lat="48.587866780" lon="2.435116710">
  <ele>91.000000</ele>
<time>2013-04-23T17:16:56Z</time>
</trkpt>
<trkpt lat="48.587816820" lon="2.435166670">
  <ele>91.000000</ele>
<time>2013-04-23T17:16:57Z</time>
</trkpt>
<trkpt lat="48.587766700" lon="2.435233390">
  <ele>91.000000</ele>
<time>2013-04-23T17:16:58Z</time>
</trkpt>
<trkpt lat="48.587716740" lon="2.435300110">
  <ele>91.000000</ele>
<time>2013-04-23T17:16:59Z</time>
</trkpt>
<trkpt lat="48.587666790" lon="2.435366830">
  <ele>91.000000</ele>
<time>2013-04-23T17:17:00Z</time>
</trkpt>
<trkpt lat="48.587616830" lon="2.435433380">
  <ele>90.000000</ele>
<time>2013-04-23T17:17:01Z</time>
</trkpt>
<trkpt lat="48.587583470" lon="2.435483340">
  <ele>90.000000</ele>
<time>2013-04-23T17:17:02Z</time>
</trkpt>
<trkpt lat="48.587533350" lon="2.435550060">
  <ele>90.000000</ele>
<time>2013-04-23T17:17:03Z</time>
</trkpt>
<trkpt lat="48.587483390" lon="2.435633370">
  <ele>90.000000</ele>
<time>2013-04-23T17:17:04Z</time>
</trkpt>
<trkpt lat="48.587450030" lon="2.435683500">
  <ele>90.000000</ele>
<time>2013-04-23T17:17:05Z</time>
</trkpt>
<trkpt lat="48.587400080" lon="2.435750050">
  <ele>90.000000</ele>
<time>2013-04-23T17:17:06Z</time>
</trkpt>
<trkpt lat="48.587350120" lon="2.435816770">
  <ele>90.000000</ele>
<time>2013-04-23T17:17:07Z</time>
</trkpt>
<trkpt lat="48.587300160" lon="2.435866720">
  <ele>90.000000</ele>
<time>2013-04-23T17:17:08Z</time>
</trkpt>
<trkpt lat="48.587250040" lon="2.435933440">
  <ele>90.000000</ele>
<time>2013-04-23T17:17:09Z</time>
</trkpt>
<trkpt lat="48.587200080" lon="2.436000160">
  <ele>91.000000</ele>
<time>2013-04-23T17:17:10Z</time>
</trkpt>
<trkpt lat="48.587150130" lon="2.436066720">
  <ele>91.000000</ele>
<time>2013-04-23T17:17:11Z</time>
</trkpt>
<trkpt lat="48.587100000" lon="2.436116670">
  <ele>90.000000</ele>
<time>2013-04-23T17:17:12Z</time>
</trkpt>
<trkpt lat="48.587050050" lon="2.436183390">
  <ele>90.000000</ele>
<time>2013-04-23T17:17:13Z</time>
</trkpt>
<trkpt lat="48.587016690" lon="2.436250110">
  <ele>91.000000</ele>
<time>2013-04-23T17:17:14Z</time>
</trkpt>
<trkpt lat="48.586966730" lon="2.436316830">
  <ele>91.000000</ele>
<time>2013-04-23T17:17:15Z</time>
</trkpt>
<trkpt lat="48.586916770" lon="2.436383390">
  <ele>90.000000</ele>
<time>2013-04-23T17:17:16Z</time>
</trkpt>
<trkpt lat="48.586866820" lon="2.436433340">
  <ele>90.000000</ele>
<time>2013-04-23T17:17:17Z</time>
</trkpt>
<trkpt lat="48.586816690" lon="2.436500060">
  <ele>90.000000</ele>
<time>2013-04-23T17:17:18Z</time>
</trkpt>
<trkpt lat="48.586766740" lon="2.436566780">
  <ele>90.000000</ele>
<time>2013-04-23T17:17:19Z</time>
</trkpt>
<trkpt lat="48.586716780" lon="2.436633330">
  <ele>90.000000</ele>
<time>2013-04-23T17:17:20Z</time>
</trkpt>
<trkpt lat="48.586683420" lon="2.436700050">
  <ele>90.000000</ele>
<time>2013-04-23T17:17:21Z</time>
</trkpt>
<trkpt lat="48.586633470" lon="2.436750010">
  <ele>91.000000</ele>
<time>2013-04-23T17:17:22Z</time>
</trkpt>
<trkpt lat="48.586583340" lon="2.436816730">
  <ele>90.000000</ele>
<time>2013-04-23T17:17:23Z</time>
</trkpt>
<trkpt lat="48.586533390" lon="2.436866690">
  <ele>90.000000</ele>
<time>2013-04-23T17:17:24Z</time>
</trkpt>
<trkpt lat="48.586483430" lon="2.436933410">
  <ele>90.000000</ele>
<time>2013-04-23T17:17:25Z</time>
</trkpt>
<trkpt lat="48.586433470" lon="2.437000130">
  <ele>89.000000</ele>
<time>2013-04-23T17:17:26Z</time>
</trkpt>
<trkpt lat="48.586383350" lon="2.437066680">
  <ele>89.000000</ele>
<time>2013-04-23T17:17:27Z</time>
</trkpt>
<trkpt lat="48.586350160" lon="2.437133400">
  <ele>89.000000</ele>
<time>2013-04-23T17:17:28Z</time>
</trkpt>
<trkpt lat="48.586300030" lon="2.437183350">
  <ele>90.000000</ele>
<time>2013-04-23T17:17:29Z</time>
</trkpt>
<trkpt lat="48.586250080" lon="2.437250070">
  <ele>90.000000</ele>
<time>2013-04-23T17:17:30Z</time>
</trkpt>
<trkpt lat="48.586200120" lon="2.437316790">
  <ele>90.000000</ele>
<time>2013-04-23T17:17:31Z</time>
</trkpt>
<trkpt lat="48.586150170" lon="2.437383350">
  <ele>90.000000</ele>
<time>2013-04-23T17:17:32Z</time>
</trkpt>
<trkpt lat="48.586116810" lon="2.437450070">
  <ele>90.000000</ele>
<time>2013-04-23T17:17:33Z</time>
</trkpt>
<trkpt lat="48.586066680" lon="2.437500020">
  <ele>90.000000</ele>
<time>2013-04-23T17:17:34Z</time>
</trkpt>
<trkpt lat="48.586016730" lon="2.437566740">
  <ele>90.000000</ele>
<time>2013-04-23T17:17:35Z</time>
</trkpt>
<trkpt lat="48.585983370" lon="2.437633460">
  <ele>90.000000</ele>
<time>2013-04-23T17:17:36Z</time>
</trkpt>
<trkpt lat="48.585933410" lon="2.437700010">
  <ele>90.000000</ele>
<time>2013-04-23T17:17:37Z</time>
</trkpt>
<trkpt lat="48.585883450" lon="2.437766730">
  <ele>90.000000</ele>
<time>2013-04-23T17:17:38Z</time>
</trkpt>
<trkpt lat="48.585850090" lon="2.437833450">
  <ele>90.000000</ele>
<time>2013-04-23T17:17:39Z</time>
</trkpt>
<trkpt lat="48.585800140" lon="2.437883410">
  <ele>90.000000</ele>
<time>2013-04-23T17:17:40Z</time>
</trkpt>
<trkpt lat="48.585733420" lon="2.437933370">
  <ele>89.000000</ele>
<time>2013-04-23T17:17:41Z</time>
</trkpt>
<trkpt lat="48.585683460" lon="2.437950130">
  <ele>89.000000</ele>
<time>2013-04-23T17:17:42Z</time>
</trkpt>
<trkpt lat="48.585616740" lon="2.437983490">
  <ele>89.000000</ele>
<time>2013-04-23T17:17:43Z</time>
</trkpt>
<trkpt lat="48.585550020" lon="2.438000090">
  <ele>89.000000</ele>
<time>2013-04-23T17:17:44Z</time>
</trkpt>
<trkpt lat="48.585500070" lon="2.438033450">
  <ele>89.000000</ele>
<time>2013-04-23T17:17:45Z</time>
</trkpt>
<trkpt lat="48.585433350" lon="2.438050040">
  <ele>89.000000</ele>
<time>2013-04-23T17:17:46Z</time>
</trkpt>
<trkpt lat="48.585383390" lon="2.438083400">
  <ele>89.000000</ele>
<time>2013-04-23T17:17:47Z</time>
</trkpt>
<trkpt lat="48.585316670" lon="2.438100170">
  <ele>89.000000</ele>
<time>2013-04-23T17:17:48Z</time>
</trkpt>
<trkpt lat="48.585250120" lon="2.438116760">
  <ele>89.000000</ele>
<time>2013-04-23T17:17:49Z</time>
</trkpt>
<trkpt lat="48.585200160" lon="2.438133360">
  <ele>89.000000</ele>
<time>2013-04-23T17:17:50Z</time>
</trkpt>
<trkpt lat="48.585133440" lon="2.438150120">
  <ele>89.000000</ele>
<time>2013-04-23T17:17:51Z</time>
</trkpt>
<trkpt lat="48.585083480" lon="2.438166720">
  <ele>89.000000</ele>
<time>2013-04-23T17:17:52Z</time>
</trkpt>
<trkpt lat="48.585016760" lon="2.438183480">
  <ele>89.000000</ele>
<time>2013-04-23T17:17:53Z</time>
</trkpt>
<trkpt lat="48.584950040" lon="2.438200080">
  <ele>90.000000</ele>
<time>2013-04-23T17:17:54Z</time>
</trkpt>
<trkpt lat="48.584900090" lon="2.438216680">
  <ele>90.000000</ele>
<time>2013-04-23T17:17:55Z</time>
</trkpt>
<trkpt lat="48.584833370" lon="2.438233440">
  <ele>90.000000</ele>
<time>2013-04-23T17:17:56Z</time>
</trkpt>
<trkpt lat="48.584783410" lon="2.438250040">
  <ele>89.000000</ele>
<time>2013-04-23T17:17:57Z</time>
</trkpt>
<trkpt lat="48.584716690" lon="2.438266800">
  <ele>89.000000</ele>
<time>2013-04-23T17:17:58Z</time>
</trkpt>
<trkpt lat="48.584650140" lon="2.438283400">
  <ele>89.000000</ele>
<time>2013-04-23T17:17:59Z</time>
</trkpt>
<trkpt lat="48.584600020" lon="2.438300160">
  <ele>89.000000</ele>
<time>2013-04-23T17:18:00Z</time>
</trkpt>
<trkpt lat="48.584533460" lon="2.438300160">
  <ele>90.000000</ele>
<time>2013-04-23T17:18:01Z</time>
</trkpt>
<trkpt lat="48.584483340" lon="2.438316750">
  <ele>90.000000</ele>
<time>2013-04-23T17:18:02Z</time>
</trkpt>
<trkpt lat="48.584416790" lon="2.438333350">
  <ele>89.000000</ele>
<time>2013-04-23T17:18:03Z</time>
</trkpt>
<trkpt lat="48.584350070" lon="2.438350110">
  <ele>90.000000</ele>
<time>2013-04-23T17:18:04Z</time>
</trkpt>
<trkpt lat="48.584300110" lon="2.438366710">
  <ele>89.000000</ele>
<time>2013-04-23T17:18:05Z</time>
</trkpt>
<trkpt lat="48.584233390" lon="2.438383470">
  <ele>89.000000</ele>
<time>2013-04-23T17:18:06Z</time>
</trkpt>
<trkpt lat="48.584183440" lon="2.438400070">
  <ele>90.000000</ele>
<time>2013-04-23T17:18:07Z</time>
</trkpt>
<trkpt lat="48.584116720" lon="2.438416670">
  <ele>89.000000</ele>
<time>2013-04-23T17:18:08Z</time>
</trkpt>
<trkpt lat="48.584050160" lon="2.438433430">
  <ele>89.000000</ele>
<time>2013-04-23T17:18:09Z</time>
</trkpt>
<trkpt lat="48.584000040" lon="2.438450030">
  <ele>89.000000</ele>
<time>2013-04-23T17:18:10Z</time>
</trkpt>
<trkpt lat="48.583950080" lon="2.438466790">
  <ele>89.000000</ele>
<time>2013-04-23T17:18:11Z</time>
</trkpt>
<trkpt lat="48.583900130" lon="2.438500150">
  <ele>89.000000</ele>
<time>2013-04-23T17:18:12Z</time>
</trkpt>
<trkpt lat="48.583866770" lon="2.438550110">
  <ele>89.000000</ele>
<time>2013-04-23T17:18:13Z</time>
</trkpt>
<trkpt lat="48.583850000" lon="2.438616830">
  <ele>89.000000</ele>
<time>2013-04-23T17:18:14Z</time>
</trkpt>
<trkpt lat="48.583833410" lon="2.438683380">
  <ele>87.000000</ele>
<time>2013-04-23T17:18:15Z</time>
</trkpt>
<trkpt lat="48.583833410" lon="2.438766700">
  <ele>87.000000</ele>
<time>2013-04-23T17:18:16Z</time>
</trkpt>
<trkpt lat="48.583850000" lon="2.438850010">
  <ele>87.000000</ele>
<time>2013-04-23T17:18:17Z</time>
</trkpt>
<trkpt lat="48.583850000" lon="2.438933500">
  <ele>87.000000</ele>
<time>2013-04-23T17:18:18Z</time>
</trkpt>
<trkpt lat="48.583850000" lon="2.439016810">
  <ele>87.000000</ele>
<time>2013-04-23T17:18:19Z</time>
</trkpt>
<trkpt lat="48.583850000" lon="2.439116720">
  <ele>87.000000</ele>
<time>2013-04-23T17:18:20Z</time>
</trkpt>
<trkpt lat="48.583850000" lon="2.439200040">
  <ele>87.000000</ele>
<time>2013-04-23T17:18:21Z</time>
</trkpt>
<trkpt lat="48.583850000" lon="2.439283360">
  <ele>87.000000</ele>
<time>2013-04-23T17:18:22Z</time>
</trkpt>
<trkpt lat="48.583850000" lon="2.439366670">
  <ele>87.000000</ele>
<time>2013-04-23T17:18:23Z</time>
</trkpt>
<trkpt lat="48.583850000" lon="2.439466750">
  <ele>87.000000</ele>
<time>2013-04-23T17:18:24Z</time>
</trkpt>
<trkpt lat="48.583866770" lon="2.439550070">
  <ele>87.000000</ele>
<time>2013-04-23T17:18:25Z</time>
</trkpt>
<trkpt lat="48.583866770" lon="2.439650150">
  <ele>87.000000</ele>
<time>2013-04-23T17:18:26Z</time>
</trkpt>
<trkpt lat="48.583883360" lon="2.439750060">
  <ele>87.000000</ele>
<time>2013-04-23T17:18:27Z</time>
</trkpt>
<trkpt lat="48.583883360" lon="2.439833380">
  <ele>87.000000</ele>
<time>2013-04-23T17:18:28Z</time>
</trkpt>
<trkpt lat="48.583883360" lon="2.439933460">
  <ele>87.000000</ele>
<time>2013-04-23T17:18:29Z</time>
</trkpt>
<trkpt lat="48.583900130" lon="2.440033370">
  <ele>87.000000</ele>
<time>2013-04-23T17:18:30Z</time>
</trkpt>
<trkpt lat="48.583900130" lon="2.440133450">
  <ele>87.000000</ele>
<time>2013-04-23T17:18:31Z</time>
</trkpt>
<trkpt lat="48.583883360" lon="2.440250120">
  <ele>86.000000</ele>
<time>2013-04-23T17:18:32Z</time>
</trkpt>
<trkpt lat="48.583866770" lon="2.440350040">
  <ele>86.000000</ele>
<time>2013-04-23T17:18:33Z</time>
</trkpt>
<trkpt lat="48.583866770" lon="2.440450120">
  <ele>86.000000</ele>
<time>2013-04-23T17:18:34Z</time>
</trkpt>
<trkpt lat="48.583850000" lon="2.440550030">
  <ele>86.000000</ele>
<time>2013-04-23T17:18:35Z</time>
</trkpt>
<trkpt lat="48.583833410" lon="2.440650110">
  <ele>86.000000</ele>
<time>2013-04-23T17:18:36Z</time>
</trkpt>
<trkpt lat="48.583833410" lon="2.440750020">
  <ele>86.000000</ele>
<time>2013-04-23T17:18:37Z</time>
</trkpt>
<trkpt lat="48.583816810" lon="2.440866700">
  <ele>85.000000</ele>
<time>2013-04-23T17:18:38Z</time>
</trkpt>
<trkpt lat="48.583816810" lon="2.440983370">
  <ele>86.000000</ele>
<time>2013-04-23T17:18:39Z</time>
</trkpt>
<trkpt lat="48.583816810" lon="2.441100050">
  <ele>85.000000</ele>
<time>2013-04-23T17:18:40Z</time>
</trkpt>
<trkpt lat="48.583833410" lon="2.441200130">
  <ele>85.000000</ele>
<time>2013-04-23T17:18:41Z</time>
</trkpt>
<trkpt lat="48.583850000" lon="2.441316810">
  <ele>85.000000</ele>
<time>2013-04-23T17:18:42Z</time>
</trkpt>
<trkpt lat="48.583866770" lon="2.441416720">
  <ele>85.000000</ele>
<time>2013-04-23T17:18:43Z</time>
</trkpt>
<trkpt lat="48.583883360" lon="2.441533390">
  <ele>85.000000</ele>
<time>2013-04-23T17:18:44Z</time>
</trkpt>
<trkpt lat="48.583900130" lon="2.441650070">
  <ele>85.000000</ele>
<time>2013-04-23T17:18:45Z</time>
</trkpt>
<trkpt lat="48.583916720" lon="2.441750150">
  <ele>85.000000</ele>
<time>2013-04-23T17:18:46Z</time>
</trkpt>
<trkpt lat="48.583933490" lon="2.441850060">
  <ele>85.000000</ele>
<time>2013-04-23T17:18:47Z</time>
</trkpt>
<trkpt lat="48.583950080" lon="2.441966740">
  <ele>85.000000</ele>
<time>2013-04-23T17:18:48Z</time>
</trkpt>
<trkpt lat="48.583966680" lon="2.442066820">
  <ele>85.000000</ele>
<time>2013-04-23T17:18:49Z</time>
</trkpt>
<trkpt lat="48.583983440" lon="2.442166730">
  <ele>85.000000</ele>
<time>2013-04-23T17:18:50Z</time>
</trkpt>
<trkpt lat="48.583966680" lon="2.442266810">
  <ele>85.000000</ele>
<time>2013-04-23T17:18:51Z</time>
</trkpt>
<trkpt lat="48.583916720" lon="2.442350130">
  <ele>85.000000</ele>
<time>2013-04-23T17:18:52Z</time>
</trkpt>
<trkpt lat="48.583850000" lon="2.442400080">
  <ele>85.000000</ele>
<time>2013-04-23T17:18:53Z</time>
</trkpt>
<trkpt lat="48.583783450" lon="2.442450040">
  <ele>84.000000</ele>
<time>2013-04-23T17:18:54Z</time>
</trkpt>
<trkpt lat="48.583700140" lon="2.442466800">
  <ele>84.000000</ele>
<time>2013-04-23T17:18:55Z</time>
</trkpt>
<trkpt lat="48.583616820" lon="2.442500160">
  <ele>84.000000</ele>
<time>2013-04-23T17:18:56Z</time>
</trkpt>
<trkpt lat="48.583533340" lon="2.442516760">
  <ele>84.000000</ele>
<time>2013-04-23T17:18:57Z</time>
</trkpt>
<trkpt lat="48.583450020" lon="2.442533360">
  <ele>84.000000</ele>
<time>2013-04-23T17:18:58Z</time>
</trkpt>
<trkpt lat="48.583350110" lon="2.442566720">
  <ele>84.000000</ele>
<time>2013-04-23T17:18:59Z</time>
</trkpt>
<trkpt lat="48.583250030" lon="2.442583480">
  <ele>83.000000</ele>
<time>2013-04-23T17:19:00Z</time>
</trkpt>
<trkpt lat="48.583150110" lon="2.442616670">
  <ele>83.000000</ele>
<time>2013-04-23T17:19:01Z</time>
</trkpt>
<trkpt lat="48.583050030" lon="2.442666800">
  <ele>82.000000</ele>
<time>2013-04-23T17:19:02Z</time>
</trkpt>
<trkpt lat="48.582933360" lon="2.442716750">
  <ele>81.000000</ele>
<time>2013-04-23T17:19:03Z</time>
</trkpt>
<trkpt lat="48.582833450" lon="2.442766710">
  <ele>79.000000</ele>
<time>2013-04-23T17:19:04Z</time>
</trkpt>
<trkpt lat="48.582716770" lon="2.442833430">
  <ele>78.000000</ele>
<time>2013-04-23T17:19:05Z</time>
</trkpt>
<trkpt lat="48.582600090" lon="2.442900150">
  <ele>77.000000</ele>
<time>2013-04-23T17:19:06Z</time>
</trkpt>
<trkpt lat="48.582466820" lon="2.442966700">
  <ele>77.000000</ele>
<time>2013-04-23T17:19:07Z</time>
</trkpt>
<trkpt lat="48.582333380" lon="2.443050020">
  <ele>75.000000</ele>
<time>2013-04-23T17:19:08Z</time>
</trkpt>
<trkpt lat="48.582200110" lon="2.443116740">
  <ele>74.000000</ele>
<time>2013-04-23T17:19:09Z</time>
</trkpt>
<trkpt lat="48.582066670" lon="2.443183460">
  <ele>73.000000</ele>
<time>2013-04-23T17:19:10Z</time>
</trkpt>
<trkpt lat="48.581933400" lon="2.443266770">
  <ele>72.000000</ele>
<time>2013-04-23T17:19:11Z</time>
</trkpt>
<trkpt lat="48.581800130" lon="2.443350090">
  <ele>71.000000</ele>
<time>2013-04-23T17:19:12Z</time>
</trkpt>
<trkpt lat="48.581666690" lon="2.443433400">
  <ele>69.000000</ele>
<time>2013-04-23T17:19:13Z</time>
</trkpt>
<trkpt lat="48.581516820" lon="2.443500120">
  <ele>68.000000</ele>
<time>2013-04-23T17:19:14Z</time>
</trkpt>
<trkpt lat="48.581383380" lon="2.443583440">
  <ele>66.000000</ele>
<time>2013-04-23T17:19:15Z</time>
</trkpt>
<trkpt lat="48.581233340" lon="2.443650160">
  <ele>65.000000</ele>
<time>2013-04-23T17:19:16Z</time>
</trkpt>
<trkpt lat="48.581100070" lon="2.443733480">
  <ele>64.000000</ele>
<time>2013-04-23T17:19:17Z</time>
</trkpt>
<trkpt lat="48.580950030" lon="2.443800030">
  <ele>63.000000</ele>
<time>2013-04-23T17:19:18Z</time>
</trkpt>
<trkpt lat="48.580816760" lon="2.443883340">
  <ele>61.000000</ele>
<time>2013-04-23T17:19:19Z</time>
</trkpt>
<trkpt lat="48.580666720" lon="2.443950060">
  <ele>60.000000</ele>
<time>2013-04-23T17:19:20Z</time>
</trkpt>
<trkpt lat="48.580516690" lon="2.444016780">
  <ele>60.000000</ele>
<time>2013-04-23T17:19:21Z</time>
</trkpt>
<trkpt lat="48.580383420" lon="2.444083340">
  <ele>59.000000</ele>
<time>2013-04-23T17:19:22Z</time>
</trkpt>
<trkpt lat="48.580233380" lon="2.444150060">
  <ele>58.000000</ele>
<time>2013-04-23T17:19:23Z</time>
</trkpt>
<trkpt lat="48.580100110" lon="2.444216780">
  <ele>56.000000</ele>
<time>2013-04-23T17:19:24Z</time>
</trkpt>
<trkpt lat="48.579966670" lon="2.444283500">
  <ele>55.000000</ele>
<time>2013-04-23T17:19:25Z</time>
</trkpt>
<trkpt lat="48.579833400" lon="2.444366810">
  <ele>54.000000</ele>
<time>2013-04-23T17:19:26Z</time>
</trkpt>
<trkpt lat="48.579700120" lon="2.444433370">
  <ele>53.000000</ele>
<time>2013-04-23T17:19:27Z</time>
</trkpt>
<trkpt lat="48.579583450" lon="2.444516680">
  <ele>52.000000</ele>
<time>2013-04-23T17:19:28Z</time>
</trkpt>
<trkpt lat="48.579483370" lon="2.444566800">
  <ele>52.000000</ele>
<time>2013-04-23T17:19:29Z</time>
</trkpt>
<trkpt lat="48.579383460" lon="2.444616760">
  <ele>51.000000</ele>
<time>2013-04-23T17:19:30Z</time>
</trkpt>
<trkpt lat="48.579300140" lon="2.444650120">
  <ele>50.000000</ele>
<time>2013-04-23T17:19:31Z</time>
</trkpt>
<trkpt lat="48.579216820" lon="2.444683480">
  <ele>50.000000</ele>
<time>2013-04-23T17:19:32Z</time>
</trkpt>
<trkpt lat="48.579116740" lon="2.444716670">
  <ele>51.000000</ele>
<time>2013-04-23T17:19:33Z</time>
</trkpt>
<trkpt lat="48.579033430" lon="2.444750030">
  <ele>51.000000</ele>
<time>2013-04-23T17:19:34Z</time>
</trkpt>
<trkpt lat="48.578966710" lon="2.444783390">
  <ele>51.000000</ele>
<time>2013-04-23T17:19:35Z</time>
</trkpt>
<trkpt lat="48.578900150" lon="2.444816750">
  <ele>51.000000</ele>
<time>2013-04-23T17:19:36Z</time>
</trkpt>
<trkpt lat="48.578850030" lon="2.444850110">
  <ele>51.000000</ele>
<time>2013-04-23T17:19:37Z</time>
</trkpt>
<trkpt lat="48.578783480" lon="2.444883470">
  <ele>50.000000</ele>
<time>2013-04-23T17:19:38Z</time>
</trkpt>
<trkpt lat="48.578716760" lon="2.444916830">
  <ele>50.000000</ele>
<time>2013-04-23T17:19:39Z</time>
</trkpt>
<trkpt lat="48.578650040" lon="2.444950030">
  <ele>49.000000</ele>
<time>2013-04-23T17:19:40Z</time>
</trkpt>
<trkpt lat="48.578600080" lon="2.444983390">
  <ele>49.000000</ele>
<time>2013-04-23T17:19:41Z</time>
</trkpt>
<trkpt lat="48.578533360" lon="2.445066700">
  <ele>49.000000</ele>
<time>2013-04-23T17:19:43Z</time>
</trkpt>
<trkpt lat="48.578500000" lon="2.445116830">
  <ele>49.000000</ele>
<time>2013-04-23T17:19:44Z</time>
</trkpt>
<trkpt lat="48.578450050" lon="2.445150020">
  <ele>49.000000</ele>
<time>2013-04-23T17:19:45Z</time>
</trkpt>
<trkpt lat="48.578400090" lon="2.445166780">
  <ele>48.000000</ele>
<time>2013-04-23T17:19:46Z</time>
</trkpt>
<trkpt lat="48.578333370" lon="2.445183380">
  <ele>48.000000</ele>
<time>2013-04-23T17:19:47Z</time>
</trkpt>
<trkpt lat="48.578283410" lon="2.445216740">
  <ele>48.000000</ele>
<time>2013-04-23T17:19:48Z</time>
</trkpt>
<trkpt lat="48.578216690" lon="2.445250100">
  <ele>48.000000</ele>
<time>2013-04-23T17:19:49Z</time>
</trkpt>
<trkpt lat="48.578166740" lon="2.445300050">
  <ele>48.000000</ele>
<time>2013-04-23T17:19:50Z</time>
</trkpt>
<trkpt lat="48.578116780" lon="2.445350010">
  <ele>49.000000</ele>
<time>2013-04-23T17:19:51Z</time>
</trkpt>
<trkpt lat="48.578050060" lon="2.445416730">
  <ele>48.000000</ele>
<time>2013-04-23T17:19:52Z</time>
</trkpt>
<trkpt lat="48.578000110" lon="2.445466690">
  <ele>48.000000</ele>
<time>2013-04-23T17:19:53Z</time>
</trkpt>
<trkpt lat="48.577933390" lon="2.445516810">
  <ele>48.000000</ele>
<time>2013-04-23T17:19:54Z</time>
</trkpt>
<trkpt lat="48.577883430" lon="2.445550000">
  <ele>48.000000</ele>
<time>2013-04-23T17:19:55Z</time>
</trkpt>
<trkpt lat="48.577816710" lon="2.445600130">
  <ele>48.000000</ele>
<time>2013-04-23T17:19:56Z</time>
</trkpt>
<trkpt lat="48.577766750" lon="2.445650080">
  <ele>48.000000</ele>
<time>2013-04-23T17:19:57Z</time>
</trkpt>
<trkpt lat="48.577716800" lon="2.445700040">
  <ele>48.000000</ele>
<time>2013-04-23T17:19:58Z</time>
</trkpt>
<trkpt lat="48.577666670" lon="2.445750160">
  <ele>48.000000</ele>
<time>2013-04-23T17:19:59Z</time>
</trkpt>
<trkpt lat="48.577616720" lon="2.445783350">
  <ele>48.000000</ele>
<time>2013-04-23T17:20:00Z</time>
</trkpt>
<trkpt lat="48.577550170" lon="2.445816710">
  <ele>49.000000</ele>
<time>2013-04-23T17:20:01Z</time>
</trkpt>
<trkpt lat="48.577500040" lon="2.445866670">
  <ele>49.000000</ele>
<time>2013-04-23T17:20:02Z</time>
</trkpt>
<trkpt lat="48.577450090" lon="2.445900030">
  <ele>49.000000</ele>
<time>2013-04-23T17:20:03Z</time>
</trkpt>
<trkpt lat="48.577400130" lon="2.445950150">
  <ele>49.000000</ele>
<time>2013-04-23T17:20:04Z</time>
</trkpt>
<trkpt lat="48.577350010" lon="2.446000110">
  <ele>49.000000</ele>
<time>2013-04-23T17:20:05Z</time>
</trkpt>
<trkpt lat="48.577300050" lon="2.446050070">
  <ele>49.000000</ele>
<time>2013-04-23T17:20:06Z</time>
</trkpt>
<trkpt lat="48.577250090" lon="2.446083430">
  <ele>49.000000</ele>
<time>2013-04-23T17:20:07Z</time>
</trkpt>
<trkpt lat="48.577183370" lon="2.446116790">
  <ele>49.000000</ele>
<time>2013-04-23T17:20:08Z</time>
</trkpt>
<trkpt lat="48.577133420" lon="2.446166740">
  <ele>50.000000</ele>
<time>2013-04-23T17:20:09Z</time>
</trkpt>
<trkpt lat="48.577083460" lon="2.446200100">
  <ele>50.000000</ele>
<time>2013-04-23T17:20:10Z</time>
</trkpt>
<trkpt lat="48.577033340" lon="2.446266820">
  <ele>50.000000</ele>
<time>2013-04-23T17:20:11Z</time>
</trkpt>
<trkpt lat="48.577016740" lon="2.446333370">
  <ele>50.000000</ele>
<time>2013-04-23T17:20:12Z</time>
</trkpt>
<trkpt lat="48.577000140" lon="2.446416690">
  <ele>50.000000</ele>
<time>2013-04-23T17:20:13Z</time>
</trkpt>
<trkpt lat="48.576983380" lon="2.446500010">
  <ele>50.000000</ele>
<time>2013-04-23T17:20:14Z</time>
</trkpt>
<trkpt lat="48.576950020" lon="2.446566730">
  <ele>50.000000</ele>
<time>2013-04-23T17:20:15Z</time>
</trkpt>
<trkpt lat="48.576933420" lon="2.446633450">
  <ele>50.000000</ele>
<time>2013-04-23T17:20:16Z</time>
</trkpt>
<trkpt lat="48.576883470" lon="2.446683400">
  <ele>51.000000</ele>
<time>2013-04-23T17:20:17Z</time>
</trkpt>
<trkpt lat="48.576850110" lon="2.446750120">
  <ele>51.000000</ele>
<time>2013-04-23T17:20:18Z</time>
</trkpt>
<trkpt lat="48.576800150" lon="2.446800080">
  <ele>51.000000</ele>
<time>2013-04-23T17:20:19Z</time>
</trkpt>
<trkpt lat="48.576766790" lon="2.446850040">
  <ele>51.000000</ele>
<time>2013-04-23T17:20:20Z</time>
</trkpt>
<trkpt lat="48.576733430" lon="2.446916760">
  <ele>51.000000</ele>
<time>2013-04-23T17:20:21Z</time>
</trkpt>
<trkpt lat="48.576683480" lon="2.446966710">
  <ele>51.000000</ele>
<time>2013-04-23T17:20:22Z</time>
</trkpt>
<trkpt lat="48.576650120" lon="2.447016670">
  <ele>52.000000</ele>
<time>2013-04-23T17:20:23Z</time>
</trkpt>
<trkpt lat="48.576583400" lon="2.447100150">
  <ele>52.000000</ele>
<time>2013-04-23T17:20:25Z</time>
</trkpt>
<trkpt lat="48.576550040" lon="2.447183470">
  <ele>53.000000</ele>
<time>2013-04-23T17:20:27Z</time>
</trkpt>
<trkpt lat="48.576466720" lon="2.447233420">
  <ele>53.000000</ele>
<time>2013-04-23T17:20:29Z</time>
</trkpt>
<trkpt lat="48.576433360" lon="2.447266780">
  <ele>53.000000</ele>
<time>2013-04-23T17:20:30Z</time>
</trkpt>
<trkpt lat="48.576400000" lon="2.447316740">
  <ele>53.000000</ele>
<time>2013-04-23T17:20:31Z</time>
</trkpt>
<trkpt lat="48.576366810" lon="2.447383460">
  <ele>54.000000</ele>
<time>2013-04-23T17:20:32Z</time>
</trkpt>
<trkpt lat="48.576350040" lon="2.447450010">
  <ele>54.000000</ele>
<time>2013-04-23T17:20:33Z</time>
</trkpt>
<trkpt lat="48.576316680" lon="2.447516730">
  <ele>54.000000</ele>
<time>2013-04-23T17:20:34Z</time>
</trkpt>
<trkpt lat="48.576300090" lon="2.447583450">
  <ele>54.000000</ele>
<time>2013-04-23T17:20:35Z</time>
</trkpt>
<trkpt lat="48.576283490" lon="2.447650000">
  <ele>54.000000</ele>
<time>2013-04-23T17:20:36Z</time>
</trkpt>
<trkpt lat="48.576250130" lon="2.447716720">
  <ele>54.000000</ele>
<time>2013-04-23T17:20:37Z</time>
</trkpt>
<trkpt lat="48.576216770" lon="2.447816800">
  <ele>54.000000</ele>
<time>2013-04-23T17:20:39Z</time>
</trkpt>
<trkpt lat="48.576183410" lon="2.447883360">
  <ele>54.000000</ele>
<time>2013-04-23T17:20:40Z</time>
</trkpt>
<trkpt lat="48.576150050" lon="2.447933480">
  <ele>55.000000</ele>
<time>2013-04-23T17:20:41Z</time>
</trkpt>
<trkpt lat="48.576116690" lon="2.447983440">
  <ele>55.000000</ele>
<time>2013-04-23T17:20:42Z</time>
</trkpt>
<trkpt lat="48.576083500" lon="2.448050160">
  <ele>55.000000</ele>
<time>2013-04-23T17:20:43Z</time>
</trkpt>
<trkpt lat="48.576066740" lon="2.448100110">
  <ele>55.000000</ele>
<time>2013-04-23T17:20:44Z</time>
</trkpt>
<trkpt lat="48.576033380" lon="2.448166830">
  <ele>55.000000</ele>
<time>2013-04-23T17:20:45Z</time>
</trkpt>
<trkpt lat="48.576016780" lon="2.448233380">
  <ele>55.000000</ele>
<time>2013-04-23T17:20:46Z</time>
</trkpt>
<trkpt lat="48.575983420" lon="2.448300100">
  <ele>56.000000</ele>
<time>2013-04-23T17:20:47Z</time>
</trkpt>
<trkpt lat="48.575950060" lon="2.448350060">
  <ele>56.000000</ele>
<time>2013-04-23T17:20:48Z</time>
</trkpt>
<trkpt lat="48.575900100" lon="2.448366820">
  <ele>55.000000</ele>
<time>2013-04-23T17:20:49Z</time>
</trkpt>
<trkpt lat="48.575850150" lon="2.448366820">
  <ele>56.000000</ele>
<time>2013-04-23T17:20:50Z</time>
</trkpt>
<trkpt lat="48.575800020" lon="2.448366820">
  <ele>56.000000</ele>
<time>2013-04-23T17:20:51Z</time>
</trkpt>
<trkpt lat="48.575766830" lon="2.448383420">
  <ele>56.000000</ele>
<time>2013-04-23T17:20:52Z</time>
</trkpt>
<trkpt lat="48.575666750" lon="2.448400020">
  <ele>57.000000</ele>
<time>2013-04-23T17:20:54Z</time>
</trkpt>
<trkpt lat="48.575633390" lon="2.448416780">
  <ele>57.000000</ele>
<time>2013-04-23T17:20:55Z</time>
</trkpt>
<trkpt lat="48.575583440" lon="2.448416780">
  <ele>57.000000</ele>
<time>2013-04-23T17:20:56Z</time>
</trkpt>
<trkpt lat="48.575533480" lon="2.448416780">
  <ele>57.000000</ele>
<time>2013-04-23T17:20:57Z</time>
</trkpt>
<trkpt lat="48.575450160" lon="2.448433380">
  <ele>58.000000</ele>
<time>2013-04-23T17:20:59Z</time>
</trkpt>
<trkpt lat="48.575366680" lon="2.448433380">
  <ele>58.000000</ele>
<time>2013-04-23T17:21:01Z</time>
</trkpt>
<trkpt lat="48.575283360" lon="2.448433380">
  <ele>59.000000</ele>
<time>2013-04-23T17:21:03Z</time>
</trkpt>
<trkpt lat="48.575200050" lon="2.448433380">
  <ele>60.000000</ele>
<time>2013-04-23T17:21:05Z</time>
</trkpt>
<trkpt lat="48.575116730" lon="2.448433380">
  <ele>60.000000</ele>
<time>2013-04-23T17:21:07Z</time>
</trkpt>
<trkpt lat="48.575050010" lon="2.448433380">
  <ele>61.000000</ele>
<time>2013-04-23T17:21:09Z</time>
</trkpt>
<trkpt lat="48.574966700" lon="2.448416780">
  <ele>61.000000</ele>
<time>2013-04-23T17:21:11Z</time>
</trkpt>
<trkpt lat="48.574883380" lon="2.448416780">
  <ele>62.000000</ele>
<time>2013-04-23T17:21:13Z</time>
</trkpt>
<trkpt lat="48.574833420" lon="2.448400020">
  <ele>62.000000</ele>
<time>2013-04-23T17:21:14Z</time>
</trkpt>
<trkpt lat="48.574700150" lon="2.448383420">
  <ele>62.000000</ele>
<time>2013-04-23T17:21:17Z</time>
</trkpt>
<trkpt lat="48.574633430" lon="2.448366820">
  <ele>62.000000</ele>
<time>2013-04-23T17:21:19Z</time>
</trkpt>
<trkpt lat="48.574550110" lon="2.448350060">
  <ele>62.000000</ele>
<time>2013-04-23T17:21:21Z</time>
</trkpt>
<trkpt lat="48.574483390" lon="2.448333460">
  <ele>62.000000</ele>
<time>2013-04-23T17:21:23Z</time>
</trkpt>
<trkpt lat="48.574400080" lon="2.448333460">
  <ele>63.000000</ele>
<time>2013-04-23T17:21:25Z</time>
</trkpt>
<trkpt lat="48.574333360" lon="2.448316700">
  <ele>63.000000</ele>
<time>2013-04-23T17:21:27Z</time>
</trkpt>
<trkpt lat="48.574266810" lon="2.448316700">
  <ele>64.000000</ele>
<time>2013-04-23T17:21:29Z</time>
</trkpt>
<trkpt lat="48.574200090" lon="2.448316700">
  <ele>64.000000</ele>
<time>2013-04-23T17:21:31Z</time>
</trkpt>
<trkpt lat="48.574133370" lon="2.448300100">
  <ele>65.000000</ele>
<time>2013-04-23T17:21:33Z</time>
</trkpt>
<trkpt lat="48.574066810" lon="2.448300100">
  <ele>65.000000</ele>
<time>2013-04-23T17:21:35Z</time>
</trkpt>
<trkpt lat="48.574000090" lon="2.448300100">
  <ele>66.000000</ele>
<time>2013-04-23T17:21:37Z</time>
</trkpt>
<trkpt lat="48.573933370" lon="2.448316700">
  <ele>66.000000</ele>
<time>2013-04-23T17:21:39Z</time>
</trkpt>
<trkpt lat="48.573866820" lon="2.448316700">
  <ele>66.000000</ele>
<time>2013-04-23T17:21:41Z</time>
</trkpt>
<trkpt lat="48.573800100" lon="2.448333460">
  <ele>67.000000</ele>
<time>2013-04-23T17:21:43Z</time>
</trkpt>
<trkpt lat="48.573733380" lon="2.448333460">
  <ele>68.000000</ele>
<time>2013-04-23T17:21:45Z</time>
</trkpt>
<trkpt lat="48.573666830" lon="2.448350060">
  <ele>68.000000</ele>
<time>2013-04-23T17:21:47Z</time>
</trkpt>
<trkpt lat="48.573600110" lon="2.448366820">
  <ele>69.000000</ele>
<time>2013-04-23T17:21:49Z</time>
</trkpt>
<trkpt lat="48.573533390" lon="2.448383420">
  <ele>69.000000</ele>
<time>2013-04-23T17:21:51Z</time>
</trkpt>
<trkpt lat="48.573466670" lon="2.448400020">
  <ele>69.000000</ele>
<time>2013-04-23T17:21:53Z</time>
</trkpt>
<trkpt lat="48.573400120" lon="2.448433380">
  <ele>70.000000</ele>
<time>2013-04-23T17:21:55Z</time>
</trkpt>
<trkpt lat="48.573333400" lon="2.448450140">
  <ele>71.000000</ele>
<time>2013-04-23T17:21:57Z</time>
</trkpt>
<trkpt lat="48.573266680" lon="2.448483500">
  <ele>71.000000</ele>
<time>2013-04-23T17:21:59Z</time>
</trkpt>
<trkpt lat="48.573200130" lon="2.448500100">
  <ele>72.000000</ele>
<time>2013-04-23T17:22:01Z</time>
</trkpt>
<trkpt lat="48.573133410" lon="2.448516690">
  <ele>72.000000</ele>
<time>2013-04-23T17:22:03Z</time>
</trkpt>
<trkpt lat="48.573083450" lon="2.448550050">
  <ele>73.000000</ele>
<time>2013-04-23T17:22:05Z</time>
</trkpt>
<trkpt lat="48.573016730" lon="2.448566820">
  <ele>73.000000</ele>
<time>2013-04-23T17:22:07Z</time>
</trkpt>
<trkpt lat="48.572950010" lon="2.448600010">
  <ele>74.000000</ele>
<time>2013-04-23T17:22:09Z</time>
</trkpt>
<trkpt lat="48.572883460" lon="2.448616770">
  <ele>75.000000</ele>
<time>2013-04-23T17:22:11Z</time>
</trkpt>
<trkpt lat="48.572816740" lon="2.448650130">
  <ele>75.000000</ele>
<time>2013-04-23T17:22:13Z</time>
</trkpt>
<trkpt lat="48.572750020" lon="2.448666730">
  <ele>75.000000</ele>
<time>2013-04-23T17:22:15Z</time>
</trkpt>
<trkpt lat="48.572716820" lon="2.448683490">
  <ele>76.000000</ele>
<time>2013-04-23T17:22:16Z</time>
</trkpt>
<trkpt lat="48.572616740" lon="2.448716690">
  <ele>76.000000</ele>
<time>2013-04-23T17:22:19Z</time>
</trkpt>
<trkpt lat="48.572550020" lon="2.448750050">
  <ele>76.000000</ele>
<time>2013-04-23T17:22:21Z</time>
</trkpt>
<trkpt lat="48.572483470" lon="2.448783410">
  <ele>76.000000</ele>
<time>2013-04-23T17:22:23Z</time>
</trkpt>
<trkpt lat="48.572400160" lon="2.448833360">
  <ele>77.000000</ele>
<time>2013-04-23T17:22:25Z</time>
</trkpt>
<trkpt lat="48.572366800" lon="2.448850130">
  <ele>77.000000</ele>
<time>2013-04-23T17:22:26Z</time>
</trkpt>
<trkpt lat="48.572316670" lon="2.448883490">
  <ele>77.000000</ele>
<time>2013-04-23T17:22:27Z</time>
</trkpt>
<trkpt lat="48.572266720" lon="2.448916680">
  <ele>77.000000</ele>
<time>2013-04-23T17:22:28Z</time>
</trkpt>
<trkpt lat="48.572216760" lon="2.448933440">
  <ele>77.000000</ele>
<time>2013-04-23T17:22:29Z</time>
</trkpt>
<trkpt lat="48.572166800" lon="2.448966800">
  <ele>78.000000</ele>
<time>2013-04-23T17:22:30Z</time>
</trkpt>
<trkpt lat="48.572133440" lon="2.449000160">
  <ele>78.000000</ele>
<time>2013-04-23T17:22:31Z</time>
</trkpt>
<trkpt lat="48.572083490" lon="2.449033350">
  <ele>78.000000</ele>
<time>2013-04-23T17:22:32Z</time>
</trkpt>
<trkpt lat="48.572033360" lon="2.449083480">
  <ele>78.000000</ele>
<time>2013-04-23T17:22:33Z</time>
</trkpt>
<trkpt lat="48.572000000" lon="2.449116670">
  <ele>78.000000</ele>
<time>2013-04-23T17:22:34Z</time>
</trkpt>
<trkpt lat="48.571950050" lon="2.449150030">
  <ele>78.000000</ele>
<time>2013-04-23T17:22:35Z</time>
</trkpt>
<trkpt lat="48.571900090" lon="2.449200150">
  <ele>78.000000</ele>
<time>2013-04-23T17:22:36Z</time>
</trkpt>
<trkpt lat="48.571850140" lon="2.449233350">
  <ele>78.000000</ele>
<time>2013-04-23T17:22:37Z</time>
</trkpt>
<trkpt lat="48.571816780" lon="2.449283470">
  <ele>78.000000</ele>
<time>2013-04-23T17:22:38Z</time>
</trkpt>
<trkpt lat="48.571766820" lon="2.449316830">
  <ele>78.000000</ele>
<time>2013-04-23T17:22:39Z</time>
</trkpt>
<trkpt lat="48.571716700" lon="2.449366790">
  <ele>78.000000</ele>
<time>2013-04-23T17:22:40Z</time>
</trkpt>
<trkpt lat="48.571683340" lon="2.449400150">
  <ele>78.000000</ele>
<time>2013-04-23T17:22:41Z</time>
</trkpt>
<trkpt lat="48.571633380" lon="2.449450100">
  <ele>78.000000</ele>
<time>2013-04-23T17:22:42Z</time>
</trkpt>
<trkpt lat="48.571600020" lon="2.449500060">
  <ele>79.000000</ele>
<time>2013-04-23T17:22:43Z</time>
</trkpt>
<trkpt lat="48.571550060" lon="2.449550010">
  <ele>79.000000</ele>
<time>2013-04-23T17:22:44Z</time>
</trkpt>
<trkpt lat="48.571516700" lon="2.449600140">
  <ele>79.000000</ele>
<time>2013-04-23T17:22:45Z</time>
</trkpt>
<trkpt lat="48.571466750" lon="2.449650090">
  <ele>78.000000</ele>
<time>2013-04-23T17:22:46Z</time>
</trkpt>
<trkpt lat="48.571433390" lon="2.449700050">
  <ele>79.000000</ele>
<time>2013-04-23T17:22:47Z</time>
</trkpt>
<trkpt lat="48.571383430" lon="2.449733410">
  <ele>79.000000</ele>
<time>2013-04-23T17:22:48Z</time>
</trkpt>
<trkpt lat="48.571333480" lon="2.449783370">
  <ele>79.000000</ele>
<time>2013-04-23T17:22:49Z</time>
</trkpt>
<trkpt lat="48.571300120" lon="2.449833490">
  <ele>79.000000</ele>
<time>2013-04-23T17:22:50Z</time>
</trkpt>
<trkpt lat="48.571266760" lon="2.449883450">
  <ele>79.000000</ele>
<time>2013-04-23T17:22:51Z</time>
</trkpt>
<trkpt lat="48.571216800" lon="2.449933400">
  <ele>79.000000</ele>
<time>2013-04-23T17:22:52Z</time>
</trkpt>
<trkpt lat="48.571166680" lon="2.449983360">
  <ele>79.000000</ele>
<time>2013-04-23T17:22:53Z</time>
</trkpt>
<trkpt lat="48.571116720" lon="2.450033480">
  <ele>79.000000</ele>
<time>2013-04-23T17:22:54Z</time>
</trkpt>
<trkpt lat="48.571083360" lon="2.450066670">
  <ele>80.000000</ele>
<time>2013-04-23T17:22:55Z</time>
</trkpt>
<trkpt lat="48.571033400" lon="2.450116800">
  <ele>80.000000</ele>
<time>2013-04-23T17:22:56Z</time>
</trkpt>
<trkpt lat="48.571000040" lon="2.450166750">
  <ele>80.000000</ele>
<time>2013-04-23T17:22:57Z</time>
</trkpt>
<trkpt lat="48.570950090" lon="2.450216710">
  <ele>80.000000</ele>
<time>2013-04-23T17:22:58Z</time>
</trkpt>
<trkpt lat="48.570916730" lon="2.450250070">
  <ele>80.000000</ele>
<time>2013-04-23T17:22:59Z</time>
</trkpt>
<trkpt lat="48.570883370" lon="2.450300030">
  <ele>81.000000</ele>
<time>2013-04-23T17:23:00Z</time>
</trkpt>
<trkpt lat="48.570833410" lon="2.450350150">
  <ele>81.000000</ele>
<time>2013-04-23T17:23:01Z</time>
</trkpt>
<trkpt lat="48.570800050" lon="2.450383340">
  <ele>81.000000</ele>
<time>2013-04-23T17:23:02Z</time>
</trkpt>
<trkpt lat="48.570766690" lon="2.450416700">
  <ele>81.000000</ele>
<time>2013-04-23T17:23:03Z</time>
</trkpt>
<trkpt lat="48.570716730" lon="2.450466830">
  <ele>82.000000</ele>
<time>2013-04-23T17:23:04Z</time>
</trkpt>
<trkpt lat="48.570683380" lon="2.450500020">
  <ele>82.000000</ele>
<time>2013-04-23T17:23:05Z</time>
</trkpt>
<trkpt lat="48.570650020" lon="2.450550140">
  <ele>82.000000</ele>
<time>2013-04-23T17:23:06Z</time>
</trkpt>
<trkpt lat="48.570600060" lon="2.450600100">
  <ele>82.000000</ele>
<time>2013-04-23T17:23:07Z</time>
</trkpt>
<trkpt lat="48.570566700" lon="2.450633460">
  <ele>82.000000</ele>
<time>2013-04-23T17:23:08Z</time>
</trkpt>
<trkpt lat="48.570533340" lon="2.450683410">
  <ele>83.000000</ele>
<time>2013-04-23T17:23:09Z</time>
</trkpt>
<trkpt lat="48.570483380" lon="2.450716770">
  <ele>83.000000</ele>
<time>2013-04-23T17:23:10Z</time>
</trkpt>
<trkpt lat="48.570450020" lon="2.450750130">
  <ele>83.000000</ele>
<time>2013-04-23T17:23:11Z</time>
</trkpt>
<trkpt lat="48.570400070" lon="2.450800090">
  <ele>83.000000</ele>
<time>2013-04-23T17:23:12Z</time>
</trkpt>
<trkpt lat="48.570366710" lon="2.450833450">
  <ele>83.000000</ele>
<time>2013-04-23T17:23:13Z</time>
</trkpt>
<trkpt lat="48.570316750" lon="2.450866810">
  <ele>84.000000</ele>
<time>2013-04-23T17:23:14Z</time>
</trkpt>
<trkpt lat="48.570266790" lon="2.450900000">
  <ele>84.000000</ele>
<time>2013-04-23T17:23:15Z</time>
</trkpt>
<trkpt lat="48.570216670" lon="2.450950130">
  <ele>84.000000</ele>
<time>2013-04-23T17:23:16Z</time>
</trkpt>
<trkpt lat="48.570166710" lon="2.450983490">
  <ele>84.000000</ele>
<time>2013-04-23T17:23:17Z</time>
</trkpt>
<trkpt lat="48.570116760" lon="2.451016680">
  <ele>84.000000</ele>
<time>2013-04-23T17:23:18Z</time>
</trkpt>
<trkpt lat="48.570066800" lon="2.451050040">
  <ele>84.000000</ele>
<time>2013-04-23T17:23:19Z</time>
</trkpt>
<trkpt lat="48.570000080" lon="2.451083400">
  <ele>84.000000</ele>
<time>2013-04-23T17:23:20Z</time>
</trkpt>
<trkpt lat="48.569950130" lon="2.451116760">
  <ele>84.000000</ele>
<time>2013-04-23T17:23:21Z</time>
</trkpt>
<trkpt lat="48.569900000" lon="2.451133360">
  <ele>84.000000</ele>
<time>2013-04-23T17:23:22Z</time>
</trkpt>
<trkpt lat="48.569833450" lon="2.451166720">
  <ele>84.000000</ele>
<time>2013-04-23T17:23:23Z</time>
</trkpt>
<trkpt lat="48.569783490" lon="2.451200080">
  <ele>84.000000</ele>
<time>2013-04-23T17:23:24Z</time>
</trkpt>
<trkpt lat="48.569716770" lon="2.451233440">
  <ele>84.000000</ele>
<time>2013-04-23T17:23:25Z</time>
</trkpt>
<trkpt lat="48.569666820" lon="2.451250030">
  <ele>84.000000</ele>
<time>2013-04-23T17:23:26Z</time>
</trkpt>
<trkpt lat="48.569616690" lon="2.451283390">
  <ele>85.000000</ele>
<time>2013-04-23T17:23:27Z</time>
</trkpt>
<trkpt lat="48.569550140" lon="2.451316750">
  <ele>84.000000</ele>
<time>2013-04-23T17:23:28Z</time>
</trkpt>
<trkpt lat="48.569483420" lon="2.451350110">
  <ele>85.000000</ele>
<time>2013-04-23T17:23:29Z</time>
</trkpt>
<trkpt lat="48.569433470" lon="2.451383470">
  <ele>85.000000</ele>
<time>2013-04-23T17:23:30Z</time>
</trkpt>
<trkpt lat="48.569366750" lon="2.451416830">
  <ele>85.000000</ele>
<time>2013-04-23T17:23:31Z</time>
</trkpt>
<trkpt lat="48.569300030" lon="2.451433430">
  <ele>85.000000</ele>
<time>2013-04-23T17:23:32Z</time>
</trkpt>
<trkpt lat="48.569250070" lon="2.451466790">
  <ele>85.000000</ele>
<time>2013-04-23T17:23:33Z</time>
</trkpt>
<trkpt lat="48.569183350" lon="2.451500150">
  <ele>85.000000</ele>
<time>2013-04-23T17:23:34Z</time>
</trkpt>
<trkpt lat="48.569116800" lon="2.451533340">
  <ele>85.000000</ele>
<time>2013-04-23T17:23:35Z</time>
</trkpt>
<trkpt lat="48.569066670" lon="2.451566700">
  <ele>85.000000</ele>
<time>2013-04-23T17:23:36Z</time>
</trkpt>
<trkpt lat="48.569000120" lon="2.451583460">
  <ele>85.000000</ele>
<time>2013-04-23T17:23:37Z</time>
</trkpt>
<trkpt lat="48.568933400" lon="2.451616820">
  <ele>85.000000</ele>
<time>2013-04-23T17:23:38Z</time>
</trkpt>
<trkpt lat="48.568866680" lon="2.451650020">
  <ele>85.000000</ele>
<time>2013-04-23T17:23:39Z</time>
</trkpt>
<trkpt lat="48.568816730" lon="2.451683380">
  <ele>85.000000</ele>
<time>2013-04-23T17:23:40Z</time>
</trkpt>
<trkpt lat="48.568750010" lon="2.451716740">
  <ele>85.000000</ele>
<time>2013-04-23T17:23:41Z</time>
</trkpt>
<trkpt lat="48.568683450" lon="2.451733500">
  <ele>85.000000</ele>
<time>2013-04-23T17:23:42Z</time>
</trkpt>
<trkpt lat="48.568616730" lon="2.451766690">
  <ele>85.000000</ele>
<time>2013-04-23T17:23:43Z</time>
</trkpt>
<trkpt lat="48.568566780" lon="2.451800050">
  <ele>84.000000</ele>
<time>2013-04-23T17:23:44Z</time>
</trkpt>
<trkpt lat="48.568500060" lon="2.451833410">
  <ele>84.000000</ele>
<time>2013-04-23T17:23:45Z</time>
</trkpt>
<trkpt lat="48.568433340" lon="2.451866770">
  <ele>85.000000</ele>
<time>2013-04-23T17:23:46Z</time>
</trkpt>
<trkpt lat="48.568366780" lon="2.451883370">
  <ele>85.000000</ele>
<time>2013-04-23T17:23:47Z</time>
</trkpt>
<trkpt lat="48.568316830" lon="2.451883370">
  <ele>84.000000</ele>
<time>2013-04-23T17:23:48Z</time>
</trkpt>
<trkpt lat="48.568250110" lon="2.451866770">
  <ele>85.000000</ele>
<time>2013-04-23T17:23:49Z</time>
</trkpt>
<trkpt lat="48.568200150" lon="2.451850010">
  <ele>85.000000</ele>
<time>2013-04-23T17:23:50Z</time>
</trkpt>
<trkpt lat="48.568166790" lon="2.451783460">
  <ele>84.000000</ele>
<time>2013-04-23T17:23:51Z</time>
</trkpt>
<trkpt lat="48.568150030" lon="2.451716740">
  <ele>84.000000</ele>
<time>2013-04-23T17:23:52Z</time>
</trkpt>
<trkpt lat="48.568133430" lon="2.451633420">
  <ele>85.000000</ele>
<time>2013-04-23T17:23:53Z</time>
</trkpt>
<trkpt lat="48.568116670" lon="2.451533340">
  <ele>85.000000</ele>
<time>2013-04-23T17:23:54Z</time>
</trkpt>
<trkpt lat="48.568083480" lon="2.451450020">
  <ele>85.000000</ele>
<time>2013-04-23T17:23:55Z</time>
</trkpt>
<trkpt lat="48.568066710" lon="2.451350110">
  <ele>85.000000</ele>
<time>2013-04-23T17:23:56Z</time>
</trkpt>
<trkpt lat="48.568050120" lon="2.451266800">
  <ele>85.000000</ele>
<time>2013-04-23T17:23:57Z</time>
</trkpt>
<trkpt lat="48.568033350" lon="2.451166720">
  <ele>84.000000</ele>
<time>2013-04-23T17:23:58Z</time>
</trkpt>
<trkpt lat="48.568016760" lon="2.451066800">
  <ele>84.000000</ele>
<time>2013-04-23T17:23:59Z</time>
</trkpt>
<trkpt lat="48.568000160" lon="2.450966720">
  <ele>84.000000</ele>
<time>2013-04-23T17:24:00Z</time>
</trkpt>
<trkpt lat="48.567983400" lon="2.450883410">
  <ele>85.000000</ele>
<time>2013-04-23T17:24:01Z</time>
</trkpt>
<trkpt lat="48.567950040" lon="2.450783490">
  <ele>85.000000</ele>
<time>2013-04-23T17:24:02Z</time>
</trkpt>
<trkpt lat="48.567933440" lon="2.450683410">
  <ele>85.000000</ele>
<time>2013-04-23T17:24:03Z</time>
</trkpt>
<trkpt lat="48.567916680" lon="2.450583340">
  <ele>85.000000</ele>
<time>2013-04-23T17:24:04Z</time>
</trkpt>
<trkpt lat="48.567900080" lon="2.450500020">
  <ele>86.000000</ele>
<time>2013-04-23T17:24:05Z</time>
</trkpt>
<trkpt lat="48.567883480" lon="2.450400110">
  <ele>86.000000</ele>
<time>2013-04-23T17:24:06Z</time>
</trkpt>
<trkpt lat="48.567850120" lon="2.450300030">
  <ele>86.000000</ele>
<time>2013-04-23T17:24:07Z</time>
</trkpt>
<trkpt lat="48.567833360" lon="2.450200110">
  <ele>86.000000</ele>
<time>2013-04-23T17:24:08Z</time>
</trkpt>
<trkpt lat="48.567816760" lon="2.450100030">
  <ele>86.000000</ele>
<time>2013-04-23T17:24:09Z</time>
</trkpt>
<trkpt lat="48.567800000" lon="2.450000120">
  <ele>87.000000</ele>
<time>2013-04-23T17:24:10Z</time>
</trkpt>
<trkpt lat="48.567766810" lon="2.449916810">
  <ele>86.000000</ele>
<time>2013-04-23T17:24:11Z</time>
</trkpt>
<trkpt lat="48.567750040" lon="2.449816730">
  <ele>86.000000</ele>
<time>2013-04-23T17:24:12Z</time>
</trkpt>
<trkpt lat="48.567733450" lon="2.449716810">
  <ele>85.000000</ele>
<time>2013-04-23T17:24:13Z</time>
</trkpt>
<trkpt lat="48.567716680" lon="2.449616730">
  <ele>85.000000</ele>
<time>2013-04-23T17:24:14Z</time>
</trkpt>
<trkpt lat="48.567700090" lon="2.449516820">
  <ele>86.000000</ele>
<time>2013-04-23T17:24:15Z</time>
</trkpt>
<trkpt lat="48.567683490" lon="2.449416740">
  <ele>86.000000</ele>
<time>2013-04-23T17:24:16Z</time>
</trkpt>
<trkpt lat="48.567683490" lon="2.449333430">
  <ele>86.000000</ele>
<time>2013-04-23T17:24:17Z</time>
</trkpt>
<trkpt lat="48.567650130" lon="2.449233350">
  <ele>87.000000</ele>
<time>2013-04-23T17:24:18Z</time>
</trkpt>
<trkpt lat="48.567633370" lon="2.449150030">
  <ele>87.000000</ele>
<time>2013-04-23T17:24:19Z</time>
</trkpt>
<trkpt lat="48.567616770" lon="2.449066710">
  <ele>86.000000</ele>
<time>2013-04-23T17:24:20Z</time>
</trkpt>
<trkpt lat="48.567600010" lon="2.448966800">
  <ele>86.000000</ele>
<time>2013-04-23T17:24:21Z</time>
</trkpt>
<trkpt lat="48.567583410" lon="2.448883490">
  <ele>86.000000</ele>
<time>2013-04-23T17:24:22Z</time>
</trkpt>
<trkpt lat="48.567566820" lon="2.448800000">
  <ele>86.000000</ele>
<time>2013-04-23T17:24:23Z</time>
</trkpt>
<trkpt lat="48.567550050" lon="2.448716690">
  <ele>85.000000</ele>
<time>2013-04-23T17:24:24Z</time>
</trkpt>
<trkpt lat="48.567516690" lon="2.448650130">
  <ele>85.000000</ele>
<time>2013-04-23T17:24:25Z</time>
</trkpt>
<trkpt lat="48.567466740" lon="2.448600010">
  <ele>86.000000</ele>
<time>2013-04-23T17:24:26Z</time>
</trkpt>
<trkpt lat="48.567416780" lon="2.448583410">
  <ele>86.000000</ele>
<time>2013-04-23T17:24:27Z</time>
</trkpt>
<trkpt lat="48.567366820" lon="2.448533460">
  <ele>86.000000</ele>
<time>2013-04-23T17:24:28Z</time>
</trkpt>
<trkpt lat="48.567316700" lon="2.448466740">
  <ele>86.000000</ele>
<time>2013-04-23T17:24:29Z</time>
</trkpt>
<trkpt lat="48.567283340" lon="2.448400020">
  <ele>86.000000</ele>
<time>2013-04-23T17:24:30Z</time>
</trkpt>
<trkpt lat="48.567233380" lon="2.448333460">
  <ele>86.000000</ele>
<time>2013-04-23T17:24:31Z</time>
</trkpt>
<trkpt lat="48.567183430" lon="2.448266740">
  <ele>86.000000</ele>
<time>2013-04-23T17:24:32Z</time>
</trkpt>
<trkpt lat="48.567133470" lon="2.448233380">
  <ele>86.000000</ele>
<time>2013-04-23T17:24:33Z</time>
</trkpt>
<trkpt lat="48.567066750" lon="2.448183430">
  <ele>86.000000</ele>
<time>2013-04-23T17:24:34Z</time>
</trkpt>
<trkpt lat="48.567016800" lon="2.448150070">
  <ele>87.000000</ele>
<time>2013-04-23T17:24:35Z</time>
</trkpt>
<trkpt lat="48.566950080" lon="2.448116710">
  <ele>87.000000</ele>
<time>2013-04-23T17:24:36Z</time>
</trkpt>
<trkpt lat="48.566900120" lon="2.448100110">
  <ele>87.000000</ele>
<time>2013-04-23T17:24:37Z</time>
</trkpt>
<trkpt lat="48.566816800" lon="2.448100110">
  <ele>87.000000</ele>
<time>2013-04-23T17:24:39Z</time>
</trkpt>
<trkpt lat="48.566733490" lon="2.448150070">
  <ele>87.000000</ele>
<time>2013-04-23T17:24:41Z</time>
</trkpt>
<trkpt lat="48.566700130" lon="2.448216790">
  <ele>87.000000</ele>
<time>2013-04-23T17:24:42Z</time>
</trkpt>
<trkpt lat="48.566650000" lon="2.448283340">
  <ele>87.000000</ele>
<time>2013-04-23T17:24:43Z</time>
</trkpt>
<trkpt lat="48.566600050" lon="2.448366820">
  <ele>87.000000</ele>
<time>2013-04-23T17:24:44Z</time>
</trkpt>
<trkpt lat="48.566550090" lon="2.448433380">
  <ele>87.000000</ele>
<time>2013-04-23T17:24:45Z</time>
</trkpt>
<trkpt lat="48.566483370" lon="2.448500100">
  <ele>87.000000</ele>
<time>2013-04-23T17:24:46Z</time>
</trkpt>
<trkpt lat="48.566416820" lon="2.448533460">
  <ele>87.000000</ele>
<time>2013-04-23T17:24:47Z</time>
</trkpt>
<trkpt lat="48.566350100" lon="2.448550050">
  <ele>87.000000</ele>
<time>2013-04-23T17:24:48Z</time>
</trkpt>
<trkpt lat="48.566283380" lon="2.448550050">
  <ele>87.000000</ele>
<time>2013-04-23T17:24:49Z</time>
</trkpt>
<trkpt lat="48.566216830" lon="2.448533460">
  <ele>87.000000</ele>
<time>2013-04-23T17:24:50Z</time>
</trkpt>
<trkpt lat="48.566150110" lon="2.448533460">
  <ele>87.000000</ele>
<time>2013-04-23T17:24:51Z</time>
</trkpt>
<trkpt lat="48.566083390" lon="2.448516690">
  <ele>87.000000</ele>
<time>2013-04-23T17:24:52Z</time>
</trkpt>
<trkpt lat="48.566033430" lon="2.448516690">
  <ele>87.000000</ele>
<time>2013-04-23T17:24:53Z</time>
</trkpt>
<trkpt lat="48.565966710" lon="2.448500100">
  <ele>87.000000</ele>
<time>2013-04-23T17:24:54Z</time>
</trkpt>
<trkpt lat="48.565900160" lon="2.448500100">
  <ele>87.000000</ele>
<time>2013-04-23T17:24:55Z</time>
</trkpt>
<trkpt lat="48.565833440" lon="2.448483500">
  <ele>87.000000</ele>
<time>2013-04-23T17:24:56Z</time>
</trkpt>
<trkpt lat="48.565766720" lon="2.448466740">
  <ele>87.000000</ele>
<time>2013-04-23T17:24:57Z</time>
</trkpt>
<trkpt lat="48.565700170" lon="2.448450140">
  <ele>87.000000</ele>
<time>2013-04-23T17:24:58Z</time>
</trkpt>
<trkpt lat="48.565633450" lon="2.448450140">
  <ele>87.000000</ele>
<time>2013-04-23T17:24:59Z</time>
</trkpt>
<trkpt lat="48.565566730" lon="2.448433380">
  <ele>87.000000</ele>
<time>2013-04-23T17:25:00Z</time>
</trkpt>
<trkpt lat="48.565500010" lon="2.448416780">
  <ele>87.000000</ele>
<time>2013-04-23T17:25:01Z</time>
</trkpt>
<trkpt lat="48.565433450" lon="2.448416780">
  <ele>87.000000</ele>
<time>2013-04-23T17:25:02Z</time>
</trkpt>
<trkpt lat="48.565366730" lon="2.448400020">
  <ele>87.000000</ele>
<time>2013-04-23T17:25:03Z</time>
</trkpt>
<trkpt lat="48.565300010" lon="2.448383420">
  <ele>87.000000</ele>
<time>2013-04-23T17:25:04Z</time>
</trkpt>
<trkpt lat="48.565233460" lon="2.448366820">
  <ele>87.000000</ele>
<time>2013-04-23T17:25:05Z</time>
</trkpt>
<trkpt lat="48.565183340" lon="2.448350060">
  <ele>87.000000</ele>
<time>2013-04-23T17:25:06Z</time>
</trkpt>
<trkpt lat="48.565116790" lon="2.448333460">
  <ele>87.000000</ele>
<time>2013-04-23T17:25:07Z</time>
</trkpt>
<trkpt lat="48.565050070" lon="2.448316700">
  <ele>87.000000</ele>
<time>2013-04-23T17:25:08Z</time>
</trkpt>
<trkpt lat="48.564983350" lon="2.448300100">
  <ele>87.000000</ele>
<time>2013-04-23T17:25:09Z</time>
</trkpt>
<trkpt lat="48.564916790" lon="2.448250150">
  <ele>87.000000</ele>
<time>2013-04-23T17:25:10Z</time>
</trkpt>
<trkpt lat="48.564850070" lon="2.448216790">
  <ele>87.000000</ele>
<time>2013-04-23T17:25:11Z</time>
</trkpt>
<trkpt lat="48.564783350" lon="2.448200020">
  <ele>87.000000</ele>
<time>2013-04-23T17:25:12Z</time>
</trkpt>
<trkpt lat="48.564716800" lon="2.448200020">
  <ele>87.000000</ele>
<time>2013-04-23T17:25:13Z</time>
</trkpt>
<trkpt lat="48.564650080" lon="2.448200020">
  <ele>87.000000</ele>
<time>2013-04-23T17:25:14Z</time>
</trkpt>
<trkpt lat="48.564583360" lon="2.448166830">
  <ele>87.000000</ele>
<time>2013-04-23T17:25:15Z</time>
</trkpt>
<trkpt lat="48.564516810" lon="2.448116710">
  <ele>87.000000</ele>
<time>2013-04-23T17:25:16Z</time>
</trkpt>
<trkpt lat="48.564450090" lon="2.448066750">
  <ele>87.000000</ele>
<time>2013-04-23T17:25:17Z</time>
</trkpt>
<trkpt lat="48.564383370" lon="2.448016800">
  <ele>87.000000</ele>
<time>2013-04-23T17:25:18Z</time>
</trkpt>
<trkpt lat="48.564300050" lon="2.447966670">
  <ele>87.000000</ele>
<time>2013-04-23T17:25:19Z</time>
</trkpt>
<trkpt lat="48.564233500" lon="2.447916720">
  <ele>87.000000</ele>
<time>2013-04-23T17:25:20Z</time>
</trkpt>
<trkpt lat="48.564166780" lon="2.447866760">
  <ele>87.000000</ele>
<time>2013-04-23T17:25:21Z</time>
</trkpt>
<trkpt lat="48.564100060" lon="2.447816800">
  <ele>87.000000</ele>
<time>2013-04-23T17:25:22Z</time>
</trkpt>
<trkpt lat="48.564033340" lon="2.447766680">
  <ele>87.000000</ele>
<time>2013-04-23T17:25:23Z</time>
</trkpt>
<trkpt lat="48.563983380" lon="2.447733490">
  <ele>87.000000</ele>
<time>2013-04-23T17:25:24Z</time>
</trkpt>
<trkpt lat="48.563916830" lon="2.447683360">
  <ele>87.000000</ele>
<time>2013-04-23T17:25:25Z</time>
</trkpt>
<trkpt lat="48.563850110" lon="2.447650000">
  <ele>87.000000</ele>
<time>2013-04-23T17:25:26Z</time>
</trkpt>
<trkpt lat="48.563783390" lon="2.447600050">
  <ele>87.000000</ele>
<time>2013-04-23T17:25:27Z</time>
</trkpt>
<trkpt lat="48.563716670" lon="2.447566690">
  <ele>87.000000</ele>
<time>2013-04-23T17:25:28Z</time>
</trkpt>
<trkpt lat="48.563666720" lon="2.447516730">
  <ele>87.000000</ele>
<time>2013-04-23T17:25:29Z</time>
</trkpt>
<trkpt lat="48.563600160" lon="2.447466780">
  <ele>87.000000</ele>
<time>2013-04-23T17:25:30Z</time>
</trkpt>
<trkpt lat="48.563533440" lon="2.447433420">
  <ele>87.000000</ele>
<time>2013-04-23T17:25:31Z</time>
</trkpt>
<trkpt lat="48.563466720" lon="2.447383460">
  <ele>88.000000</ele>
<time>2013-04-23T17:25:32Z</time>
</trkpt>
<trkpt lat="48.563416770" lon="2.447333340">
  <ele>88.000000</ele>
<time>2013-04-23T17:25:33Z</time>
</trkpt>
<trkpt lat="48.563350050" lon="2.447300140">
  <ele>88.000000</ele>
<time>2013-04-23T17:25:34Z</time>
</trkpt>
<trkpt lat="48.563283500" lon="2.447250020">
  <ele>88.000000</ele>
<time>2013-04-23T17:25:35Z</time>
</trkpt>
<trkpt lat="48.563216780" lon="2.447200060">
  <ele>88.000000</ele>
<time>2013-04-23T17:25:36Z</time>
</trkpt>
<trkpt lat="48.563166820" lon="2.447166700">
  <ele>88.000000</ele>
<time>2013-04-23T17:25:37Z</time>
</trkpt>
<trkpt lat="48.563100100" lon="2.447133340">
  <ele>88.000000</ele>
<time>2013-04-23T17:25:38Z</time>
</trkpt>
<trkpt lat="48.563033380" lon="2.447083390">
  <ele>88.000000</ele>
<time>2013-04-23T17:25:39Z</time>
</trkpt>
<trkpt lat="48.562983420" lon="2.447050030">
  <ele>88.000000</ele>
<time>2013-04-23T17:25:40Z</time>
</trkpt>
<trkpt lat="48.562916700" lon="2.447000070">
  <ele>88.000000</ele>
<time>2013-04-23T17:25:41Z</time>
</trkpt>
<trkpt lat="48.562850150" lon="2.446950120">
  <ele>88.000000</ele>
<time>2013-04-23T17:25:42Z</time>
</trkpt>
<trkpt lat="48.562783430" lon="2.446916760">
  <ele>88.000000</ele>
<time>2013-04-23T17:25:43Z</time>
</trkpt>
<trkpt lat="48.562733480" lon="2.446866800">
  <ele>88.000000</ele>
<time>2013-04-23T17:25:44Z</time>
</trkpt>
<trkpt lat="48.562666760" lon="2.446816680">
  <ele>88.000000</ele>
<time>2013-04-23T17:25:45Z</time>
</trkpt>
<trkpt lat="48.562600040" lon="2.446783480">
  <ele>88.000000</ele>
<time>2013-04-23T17:25:46Z</time>
</trkpt>
<trkpt lat="48.562550080" lon="2.446733360">
  <ele>88.000000</ele>
<time>2013-04-23T17:25:47Z</time>
</trkpt>
<trkpt lat="48.562483360" lon="2.446700170">
  <ele>88.000000</ele>
<time>2013-04-23T17:25:48Z</time>
</trkpt>
<trkpt lat="48.562416810" lon="2.446650040">
  <ele>88.000000</ele>
<time>2013-04-23T17:25:49Z</time>
</trkpt>
<trkpt lat="48.562366680" lon="2.446600090">
  <ele>88.000000</ele>
<time>2013-04-23T17:25:50Z</time>
</trkpt>
<trkpt lat="48.562300130" lon="2.446566730">
  <ele>88.000000</ele>
<time>2013-04-23T17:25:51Z</time>
</trkpt>
<trkpt lat="48.562233410" lon="2.446516770">
  <ele>88.000000</ele>
<time>2013-04-23T17:25:52Z</time>
</trkpt>
<trkpt lat="48.562183450" lon="2.446466810">
  <ele>88.000000</ele>
<time>2013-04-23T17:25:53Z</time>
</trkpt>
<trkpt lat="48.562116730" lon="2.446416690">
  <ele>88.000000</ele>
<time>2013-04-23T17:25:54Z</time>
</trkpt>
<trkpt lat="48.562066780" lon="2.446383500">
  <ele>88.000000</ele>
<time>2013-04-23T17:25:55Z</time>
</trkpt>
<trkpt lat="48.562000060" lon="2.446333370">
  <ele>88.000000</ele>
<time>2013-04-23T17:25:56Z</time>
</trkpt>
<trkpt lat="48.561950100" lon="2.446283420">
  <ele>88.000000</ele>
<time>2013-04-23T17:25:57Z</time>
</trkpt>
<trkpt lat="48.561883380" lon="2.446233460">
  <ele>88.000000</ele>
<time>2013-04-23T17:25:58Z</time>
</trkpt>
<trkpt lat="48.561816830" lon="2.446200100">
  <ele>88.000000</ele>
<time>2013-04-23T17:25:59Z</time>
</trkpt>
<trkpt lat="48.561766710" lon="2.446166740">
  <ele>88.000000</ele>
<time>2013-04-23T17:26:00Z</time>
</trkpt>
<trkpt lat="48.561700150" lon="2.446116790">
  <ele>89.000000</ele>
<time>2013-04-23T17:26:01Z</time>
</trkpt>
<trkpt lat="48.561650030" lon="2.446066830">
  <ele>88.000000</ele>
<time>2013-04-23T17:26:02Z</time>
</trkpt>
<trkpt lat="48.561583480" lon="2.446016710">
  <ele>89.000000</ele>
<time>2013-04-23T17:26:03Z</time>
</trkpt>
<trkpt lat="48.561533350" lon="2.445983350">
  <ele>89.000000</ele>
<time>2013-04-23T17:26:04Z</time>
</trkpt>
<trkpt lat="48.561466800" lon="2.445916790">
  <ele>89.000000</ele>
<time>2013-04-23T17:26:05Z</time>
</trkpt>
<trkpt lat="48.561416680" lon="2.445866670">
  <ele>89.000000</ele>
<time>2013-04-23T17:26:06Z</time>
</trkpt>
<trkpt lat="48.561383490" lon="2.445783350">
  <ele>89.000000</ele>
<time>2013-04-23T17:26:07Z</time>
</trkpt>
<trkpt lat="48.561366720" lon="2.445700040">
  <ele>89.000000</ele>
<time>2013-04-23T17:26:08Z</time>
</trkpt>
<trkpt lat="48.561350130" lon="2.445616720">
  <ele>89.000000</ele>
<time>2013-04-23T17:26:09Z</time>
</trkpt>
<trkpt lat="48.561333360" lon="2.445533410">
  <ele>89.000000</ele>
<time>2013-04-23T17:26:10Z</time>
</trkpt>
<trkpt lat="48.561316770" lon="2.445450090">
  <ele>89.000000</ele>
<time>2013-04-23T17:26:11Z</time>
</trkpt>
<trkpt lat="48.561316770" lon="2.445366770">
  <ele>89.000000</ele>
<time>2013-04-23T17:26:12Z</time>
</trkpt>
<trkpt lat="48.561316770" lon="2.445283460">
  <ele>89.000000</ele>
<time>2013-04-23T17:26:13Z</time>
</trkpt>
<trkpt lat="48.561316770" lon="2.445200140">
  <ele>89.000000</ele>
<time>2013-04-23T17:26:14Z</time>
</trkpt>
<trkpt lat="48.561283410" lon="2.445066700">
  <ele>89.000000</ele>
<time>2013-04-23T17:26:16Z</time>
</trkpt>
<trkpt lat="48.561216690" lon="2.445100060">
  <ele>89.000000</ele>
<time>2013-04-23T17:26:18Z</time>
</trkpt>
<trkpt lat="48.561166730" lon="2.445100060">
  <ele>89.000000</ele>
<time>2013-04-23T17:26:19Z</time>
</trkpt>
<trkpt lat="48.561116770" lon="2.445083470">
  <ele>89.000000</ele>
<time>2013-04-23T17:26:20Z</time>
</trkpt>
<trkpt lat="48.561066820" lon="2.445033340">
  <ele>88.000000</ele>
<time>2013-04-23T17:26:21Z</time>
</trkpt>
<trkpt lat="48.561016690" lon="2.444983390">
  <ele>89.000000</ele>
<time>2013-04-23T17:26:22Z</time>
</trkpt>
<trkpt lat="48.560966740" lon="2.444933430">
  <ele>88.000000</ele>
<time>2013-04-23T17:26:23Z</time>
</trkpt>
<trkpt lat="48.560916780" lon="2.444883470">
  <ele>89.000000</ele>
<time>2013-04-23T17:26:24Z</time>
</trkpt>
<trkpt lat="48.560850060" lon="2.444866710">
  <ele>89.000000</ele>
<time>2013-04-23T17:26:25Z</time>
</trkpt>
<trkpt lat="48.560800110" lon="2.444850110">
  <ele>89.000000</ele>
<time>2013-04-23T17:26:26Z</time>
</trkpt>
<trkpt lat="48.560733390" lon="2.444866710">
  <ele>89.000000</ele>
<time>2013-04-23T17:26:27Z</time>
</trkpt>
<trkpt lat="48.560666830" lon="2.444883470">
  <ele>88.000000</ele>
<time>2013-04-23T17:26:28Z</time>
</trkpt>
<trkpt lat="48.560616710" lon="2.444916830">
  <ele>89.000000</ele>
<time>2013-04-23T17:26:29Z</time>
</trkpt>
<trkpt lat="48.560550160" lon="2.444950030">
  <ele>89.000000</ele>
<time>2013-04-23T17:26:30Z</time>
</trkpt>
<trkpt lat="48.560500030" lon="2.444983390">
  <ele>89.000000</ele>
<time>2013-04-23T17:26:31Z</time>
</trkpt>
<trkpt lat="48.560433480" lon="2.445016750">
  <ele>89.000000</ele>
<time>2013-04-23T17:26:32Z</time>
</trkpt>
<trkpt lat="48.560366760" lon="2.445066700">
  <ele>89.000000</ele>
<time>2013-04-23T17:26:33Z</time>
</trkpt>
<trkpt lat="48.560300040" lon="2.445100060">
  <ele>88.000000</ele>
<time>2013-04-23T17:26:34Z</time>
</trkpt>
<trkpt lat="48.560233490" lon="2.445133420">
  <ele>88.000000</ele>
<time>2013-04-23T17:26:35Z</time>
</trkpt>
<trkpt lat="48.560166770" lon="2.445166780">
  <ele>88.000000</ele>
<time>2013-04-23T17:26:36Z</time>
</trkpt>
<trkpt lat="48.560100050" lon="2.445200140">
  <ele>88.000000</ele>
<time>2013-04-23T17:26:37Z</time>
</trkpt>
<trkpt lat="48.560033500" lon="2.445233330">
  <ele>88.000000</ele>
<time>2013-04-23T17:26:38Z</time>
</trkpt>
<trkpt lat="48.559966780" lon="2.445266690">
  <ele>88.000000</ele>
<time>2013-04-23T17:26:39Z</time>
</trkpt>
<trkpt lat="48.559916820" lon="2.445300050">
  <ele>88.000000</ele>
<time>2013-04-23T17:26:40Z</time>
</trkpt>
<trkpt lat="48.559850100" lon="2.445333410">
  <ele>88.000000</ele>
<time>2013-04-23T17:26:41Z</time>
</trkpt>
<trkpt lat="48.559783380" lon="2.445366770">
  <ele>88.000000</ele>
<time>2013-04-23T17:26:42Z</time>
</trkpt>
<trkpt lat="48.559716830" lon="2.445400130">
  <ele>88.000000</ele>
<time>2013-04-23T17:26:43Z</time>
</trkpt>
<trkpt lat="48.559633340" lon="2.445433490">
  <ele>87.000000</ele>
<time>2013-04-23T17:26:44Z</time>
</trkpt>
<trkpt lat="48.559583390" lon="2.445466690">
  <ele>88.000000</ele>
<time>2013-04-23T17:26:45Z</time>
</trkpt>
<trkpt lat="48.559516670" lon="2.445483450">
  <ele>88.000000</ele>
<time>2013-04-23T17:26:46Z</time>
</trkpt>
<trkpt lat="48.559450120" lon="2.445500050">
  <ele>89.000000</ele>
<time>2013-04-23T17:26:47Z</time>
</trkpt>
<trkpt lat="48.559383400" lon="2.445500050">
  <ele>89.000000</ele>
<time>2013-04-23T17:26:48Z</time>
</trkpt>
<trkpt lat="48.559350040" lon="2.445483450">
  <ele>89.000000</ele>
<time>2013-04-23T17:26:49Z</time>
</trkpt>
<trkpt lat="48.559300080" lon="2.445483450">
  <ele>89.000000</ele>
<time>2013-04-23T17:26:50Z</time>
</trkpt>
<trkpt lat="48.559250120" lon="2.445516810">
  <ele>88.000000</ele>
<time>2013-04-23T17:26:51Z</time>
</trkpt>
<trkpt lat="48.559183400" lon="2.445550000">
  <ele>88.000000</ele>
<time>2013-04-23T17:26:52Z</time>
</trkpt>
<trkpt lat="48.559133450" lon="2.445583360">
  <ele>88.000000</ele>
<time>2013-04-23T17:26:53Z</time>
</trkpt>
<trkpt lat="48.559066730" lon="2.445600130">
  <ele>88.000000</ele>
<time>2013-04-23T17:26:54Z</time>
</trkpt>
<trkpt lat="48.559000010" lon="2.445633490">
  <ele>89.000000</ele>
<time>2013-04-23T17:26:55Z</time>
</trkpt>
<trkpt lat="48.558933460" lon="2.445650080">
  <ele>89.000000</ele>
<time>2013-04-23T17:26:56Z</time>
</trkpt>
<trkpt lat="48.558866740" lon="2.445683440">
  <ele>89.000000</ele>
<time>2013-04-23T17:26:57Z</time>
</trkpt>
<trkpt lat="48.558800020" lon="2.445700040">
  <ele>87.000000</ele>
<time>2013-04-23T17:26:58Z</time>
</trkpt>
<trkpt lat="48.558733460" lon="2.445733400">
  <ele>88.000000</ele>
<time>2013-04-23T17:26:59Z</time>
</trkpt>
<trkpt lat="48.558650150" lon="2.445766760">
  <ele>88.000000</ele>
<time>2013-04-23T17:27:00Z</time>
</trkpt>
<trkpt lat="48.558583430" lon="2.445800120">
  <ele>88.000000</ele>
<time>2013-04-23T17:27:01Z</time>
</trkpt>
<trkpt lat="48.558533470" lon="2.445833480">
  <ele>89.000000</ele>
<time>2013-04-23T17:27:02Z</time>
</trkpt>
<trkpt lat="48.558450150" lon="2.445866670">
  <ele>88.000000</ele>
<time>2013-04-23T17:27:03Z</time>
</trkpt>
<trkpt lat="48.558383440" lon="2.445883430">
  <ele>88.000000</ele>
<time>2013-04-23T17:27:04Z</time>
</trkpt>
<trkpt lat="48.558316720" lon="2.445883430">
  <ele>88.000000</ele>
<time>2013-04-23T17:27:05Z</time>
</trkpt>
<trkpt lat="48.558266760" lon="2.445866670">
  <ele>88.000000</ele>
<time>2013-04-23T17:27:06Z</time>
</trkpt>
<trkpt lat="48.558183440" lon="2.445866670">
  <ele>89.000000</ele>
<time>2013-04-23T17:27:08Z</time>
</trkpt>
<trkpt lat="48.558150080" lon="2.445916790">
  <ele>89.000000</ele>
<time>2013-04-23T17:27:09Z</time>
</trkpt>
<trkpt lat="48.558116720" lon="2.445966750">
  <ele>88.000000</ele>
<time>2013-04-23T17:27:10Z</time>
</trkpt>
<trkpt lat="48.558050000" lon="2.446033470">
  <ele>87.000000</ele>
<time>2013-04-23T17:27:11Z</time>
</trkpt>
<trkpt lat="48.558000050" lon="2.446066830">
  <ele>88.000000</ele>
<time>2013-04-23T17:27:12Z</time>
</trkpt>
<trkpt lat="48.557933490" lon="2.446100020">
  <ele>88.000000</ele>
<time>2013-04-23T17:27:13Z</time>
</trkpt>
<trkpt lat="48.557866770" lon="2.446133380">
  <ele>87.000000</ele>
<time>2013-04-23T17:27:14Z</time>
</trkpt>
<trkpt lat="48.557800050" lon="2.446166740">
  <ele>87.000000</ele>
<time>2013-04-23T17:27:15Z</time>
</trkpt>
<trkpt lat="48.557733330" lon="2.446200100">
  <ele>87.000000</ele>
<time>2013-04-23T17:27:16Z</time>
</trkpt>
<trkpt lat="48.557666780" lon="2.446233460">
  <ele>87.000000</ele>
<time>2013-04-23T17:27:17Z</time>
</trkpt>
<trkpt lat="48.557600060" lon="2.446266820">
  <ele>87.000000</ele>
<time>2013-04-23T17:27:18Z</time>
</trkpt>
<trkpt lat="48.557550110" lon="2.446300010">
  <ele>87.000000</ele>
<time>2013-04-23T17:27:19Z</time>
</trkpt>
<trkpt lat="48.557483390" lon="2.446333370">
  <ele>87.000000</ele>
<time>2013-04-23T17:27:20Z</time>
</trkpt>
<trkpt lat="48.557416830" lon="2.446366730">
  <ele>87.000000</ele>
<time>2013-04-23T17:27:21Z</time>
</trkpt>
<trkpt lat="48.557350110" lon="2.446400090">
  <ele>87.000000</ele>
<time>2013-04-23T17:27:22Z</time>
</trkpt>
<trkpt lat="48.557283390" lon="2.446416690">
  <ele>87.000000</ele>
<time>2013-04-23T17:27:23Z</time>
</trkpt>
<trkpt lat="48.557216670" lon="2.446450050">
  <ele>87.000000</ele>
<time>2013-04-23T17:27:24Z</time>
</trkpt>
<trkpt lat="48.557150120" lon="2.446483410">
  <ele>87.000000</ele>
<time>2013-04-23T17:27:25Z</time>
</trkpt>
<trkpt lat="48.557083400" lon="2.446516770">
  <ele>87.000000</ele>
<time>2013-04-23T17:27:26Z</time>
</trkpt>
<trkpt lat="48.557016680" lon="2.446550130">
  <ele>87.000000</ele>
<time>2013-04-23T17:27:27Z</time>
</trkpt>
<trkpt lat="48.556950130" lon="2.446583490">
  <ele>87.000000</ele>
<time>2013-04-23T17:27:28Z</time>
</trkpt>
<trkpt lat="48.556866810" lon="2.446600090">
  <ele>87.000000</ele>
<time>2013-04-23T17:27:29Z</time>
</trkpt>
<trkpt lat="48.556800090" lon="2.446633450">
  <ele>87.000000</ele>
<time>2013-04-23T17:27:30Z</time>
</trkpt>
<trkpt lat="48.556733370" lon="2.446666810">
  <ele>87.000000</ele>
<time>2013-04-23T17:27:31Z</time>
</trkpt>
<trkpt lat="48.556666820" lon="2.446700170">
  <ele>87.000000</ele>
<time>2013-04-23T17:27:32Z</time>
</trkpt>
<trkpt lat="48.556600100" lon="2.446750120">
  <ele>87.000000</ele>
<time>2013-04-23T17:27:33Z</time>
</trkpt>
<trkpt lat="48.556533380" lon="2.446783480">
  <ele>88.000000</ele>
<time>2013-04-23T17:27:34Z</time>
</trkpt>
<trkpt lat="48.556466830" lon="2.446816680">
  <ele>87.000000</ele>
<time>2013-04-23T17:27:35Z</time>
</trkpt>
<trkpt lat="48.556383350" lon="2.446850040">
  <ele>87.000000</ele>
<time>2013-04-23T17:27:36Z</time>
</trkpt>
<trkpt lat="48.556316790" lon="2.446883400">
  <ele>87.000000</ele>
<time>2013-04-23T17:27:37Z</time>
</trkpt>
<trkpt lat="48.556250070" lon="2.446916760">
  <ele>86.000000</ele>
<time>2013-04-23T17:27:38Z</time>
</trkpt>
<trkpt lat="48.556183350" lon="2.446950120">
  <ele>87.000000</ele>
<time>2013-04-23T17:27:39Z</time>
</trkpt>
<trkpt lat="48.556116800" lon="2.446983480">
  <ele>87.000000</ele>
<time>2013-04-23T17:27:40Z</time>
</trkpt>
<trkpt lat="48.556050080" lon="2.447016670">
  <ele>88.000000</ele>
<time>2013-04-23T17:27:41Z</time>
</trkpt>
<trkpt lat="48.555966760" lon="2.447050030">
  <ele>87.000000</ele>
<time>2013-04-23T17:27:42Z</time>
</trkpt>
<trkpt lat="48.555900040" lon="2.447083390">
  <ele>87.000000</ele>
<time>2013-04-23T17:27:43Z</time>
</trkpt>
<trkpt lat="48.555833490" lon="2.447116750">
  <ele>87.000000</ele>
<time>2013-04-23T17:27:44Z</time>
</trkpt>
<trkpt lat="48.555766770" lon="2.447150110">
  <ele>87.000000</ele>
<time>2013-04-23T17:27:45Z</time>
</trkpt>
<trkpt lat="48.555700050" lon="2.447183470">
  <ele>88.000000</ele>
<time>2013-04-23T17:27:46Z</time>
</trkpt>
<trkpt lat="48.555633500" lon="2.447233420">
  <ele>88.000000</ele>
<time>2013-04-23T17:27:47Z</time>
</trkpt>
<trkpt lat="48.555566780" lon="2.447266780">
  <ele>88.000000</ele>
<time>2013-04-23T17:27:48Z</time>
</trkpt>
<trkpt lat="48.555500060" lon="2.447283380">
  <ele>88.000000</ele>
<time>2013-04-23T17:27:49Z</time>
</trkpt>
<trkpt lat="48.555433340" lon="2.447333340">
  <ele>87.000000</ele>
<time>2013-04-23T17:27:50Z</time>
</trkpt>
<trkpt lat="48.555366790" lon="2.447366700">
  <ele>87.000000</ele>
<time>2013-04-23T17:27:51Z</time>
</trkpt>
<trkpt lat="48.555283470" lon="2.447400060">
  <ele>88.000000</ele>
<time>2013-04-23T17:27:52Z</time>
</trkpt>
<trkpt lat="48.555216750" lon="2.447433420">
  <ele>88.000000</ele>
<time>2013-04-23T17:27:53Z</time>
</trkpt>
<trkpt lat="48.555150030" lon="2.447466780">
  <ele>87.000000</ele>
<time>2013-04-23T17:27:54Z</time>
</trkpt>
<trkpt lat="48.555083480" lon="2.447500140">
  <ele>88.000000</ele>
<time>2013-04-23T17:27:55Z</time>
</trkpt>
<trkpt lat="48.555016760" lon="2.447533500">
  <ele>88.000000</ele>
<time>2013-04-23T17:27:56Z</time>
</trkpt>
<trkpt lat="48.554950040" lon="2.447583450">
  <ele>88.000000</ele>
<time>2013-04-23T17:27:57Z</time>
</trkpt>
<trkpt lat="48.554883490" lon="2.447616810">
  <ele>87.000000</ele>
<time>2013-04-23T17:27:58Z</time>
</trkpt>
<trkpt lat="48.554816770" lon="2.447650000">
  <ele>87.000000</ele>
<time>2013-04-23T17:27:59Z</time>
</trkpt>
<trkpt lat="48.554750050" lon="2.447683360">
  <ele>87.000000</ele>
<time>2013-04-23T17:28:00Z</time>
</trkpt>
<trkpt lat="48.554683500" lon="2.447716720">
  <ele>87.000000</ele>
<time>2013-04-23T17:28:01Z</time>
</trkpt>
<trkpt lat="48.554600010" lon="2.447733490">
  <ele>88.000000</ele>
<time>2013-04-23T17:28:02Z</time>
</trkpt>
<trkpt lat="48.554533460" lon="2.447750080">
  <ele>87.000000</ele>
<time>2013-04-23T17:28:03Z</time>
</trkpt>
<trkpt lat="48.554466740" lon="2.447750080">
  <ele>88.000000</ele>
<time>2013-04-23T17:28:04Z</time>
</trkpt>
<trkpt lat="48.554383420" lon="2.447766680">
  <ele>88.000000</ele>
<time>2013-04-23T17:28:05Z</time>
</trkpt>
<trkpt lat="48.554316700" lon="2.447766680">
  <ele>87.000000</ele>
<time>2013-04-23T17:28:06Z</time>
</trkpt>
<trkpt lat="48.554233390" lon="2.447766680">
  <ele>87.000000</ele>
<time>2013-04-23T17:28:07Z</time>
</trkpt>
<trkpt lat="48.554166670" lon="2.447766680">
  <ele>88.000000</ele>
<time>2013-04-23T17:28:08Z</time>
</trkpt>
<trkpt lat="48.554083350" lon="2.447766680">
  <ele>88.000000</ele>
<time>2013-04-23T17:28:09Z</time>
</trkpt>
<trkpt lat="48.554016800" lon="2.447766680">
  <ele>88.000000</ele>
<time>2013-04-23T17:28:10Z</time>
</trkpt>
<trkpt lat="48.553933480" lon="2.447750080">
  <ele>88.000000</ele>
<time>2013-04-23T17:28:11Z</time>
</trkpt>
<trkpt lat="48.553866760" lon="2.447750080">
  <ele>88.000000</ele>
<time>2013-04-23T17:28:12Z</time>
</trkpt>
<trkpt lat="48.553783450" lon="2.447750080">
  <ele>88.000000</ele>
<time>2013-04-23T17:28:13Z</time>
</trkpt>
<trkpt lat="48.553716730" lon="2.447750080">
  <ele>87.000000</ele>
<time>2013-04-23T17:28:14Z</time>
</trkpt>
<trkpt lat="48.553633410" lon="2.447750080">
  <ele>88.000000</ele>
<time>2013-04-23T17:28:15Z</time>
</trkpt>
<trkpt lat="48.553566690" lon="2.447766680">
  <ele>88.000000</ele>
<time>2013-04-23T17:28:16Z</time>
</trkpt>
<trkpt lat="48.553500140" lon="2.447766680">
  <ele>88.000000</ele>
<time>2013-04-23T17:28:17Z</time>
</trkpt>
<trkpt lat="48.553416820" lon="2.447766680">
  <ele>87.000000</ele>
<time>2013-04-23T17:28:18Z</time>
</trkpt>
<trkpt lat="48.553350100" lon="2.447766680">
  <ele>87.000000</ele>
<time>2013-04-23T17:28:19Z</time>
</trkpt>
<trkpt lat="48.553266790" lon="2.447766680">
  <ele>87.000000</ele>
<time>2013-04-23T17:28:20Z</time>
</trkpt>
<trkpt lat="48.553200070" lon="2.447783440">
  <ele>87.000000</ele>
<time>2013-04-23T17:28:21Z</time>
</trkpt>
<trkpt lat="48.553133350" lon="2.447783440">
  <ele>87.000000</ele>
<time>2013-04-23T17:28:22Z</time>
</trkpt>
<trkpt lat="48.553050030" lon="2.447783440">
  <ele>88.000000</ele>
<time>2013-04-23T17:28:23Z</time>
</trkpt>
<trkpt lat="48.552983480" lon="2.447783440">
  <ele>88.000000</ele>
<time>2013-04-23T17:28:24Z</time>
</trkpt>
<trkpt lat="48.552916760" lon="2.447800040">
  <ele>88.000000</ele>
<time>2013-04-23T17:28:25Z</time>
</trkpt>
<trkpt lat="48.552833440" lon="2.447800040">
  <ele>88.000000</ele>
<time>2013-04-23T17:28:26Z</time>
</trkpt>
<trkpt lat="48.552766720" lon="2.447816800">
  <ele>88.000000</ele>
<time>2013-04-23T17:28:27Z</time>
</trkpt>
<trkpt lat="48.552683410" lon="2.447816800">
  <ele>88.000000</ele>
<time>2013-04-23T17:28:28Z</time>
</trkpt>
<trkpt lat="48.552616690" lon="2.447833400">
  <ele>88.000000</ele>
<time>2013-04-23T17:28:29Z</time>
</trkpt>
<trkpt lat="48.552550130" lon="2.447833400">
  <ele>87.000000</ele>
<time>2013-04-23T17:28:30Z</time>
</trkpt>
<trkpt lat="48.552466820" lon="2.447833400">
  <ele>88.000000</ele>
<time>2013-04-23T17:28:31Z</time>
</trkpt>
<trkpt lat="48.552400100" lon="2.447833400">
  <ele>88.000000</ele>
<time>2013-04-23T17:28:32Z</time>
</trkpt>
<trkpt lat="48.552316780" lon="2.447833400">
  <ele>87.000000</ele>
<time>2013-04-23T17:28:33Z</time>
</trkpt>
<trkpt lat="48.552250060" lon="2.447816800">
  <ele>87.000000</ele>
<time>2013-04-23T17:28:34Z</time>
</trkpt>
<trkpt lat="48.552183340" lon="2.447783440">
  <ele>88.000000</ele>
<time>2013-04-23T17:28:35Z</time>
</trkpt>
<trkpt lat="48.552116790" lon="2.447750080">
  <ele>88.000000</ele>
<time>2013-04-23T17:28:36Z</time>
</trkpt>
<trkpt lat="48.552066830" lon="2.447733490">
  <ele>88.000000</ele>
<time>2013-04-23T17:28:37Z</time>
</trkpt>
<trkpt lat="48.552016710" lon="2.447716720">
  <ele>89.000000</ele>
<time>2013-04-23T17:28:38Z</time>
</trkpt>
<trkpt lat="48.551950160" lon="2.447700130">
  <ele>90.000000</ele>
<time>2013-04-23T17:28:39Z</time>
</trkpt>
<trkpt lat="48.551900030" lon="2.447700130">
  <ele>90.000000</ele>
<time>2013-04-23T17:28:40Z</time>
</trkpt>
<trkpt lat="48.551866670" lon="2.447733490">
  <ele>90.000000</ele>
<time>2013-04-23T17:28:41Z</time>
</trkpt>
<trkpt lat="48.551816720" lon="2.447783440">
  <ele>90.000000</ele>
<time>2013-04-23T17:28:42Z</time>
</trkpt>
<trkpt lat="48.551750160" lon="2.447816800">
  <ele>90.000000</ele>
<time>2013-04-23T17:28:43Z</time>
</trkpt>
<trkpt lat="48.551700040" lon="2.447816800">
  <ele>89.000000</ele>
<time>2013-04-23T17:28:44Z</time>
</trkpt>
<trkpt lat="48.551633490" lon="2.447816800">
  <ele>86.000000</ele>
<time>2013-04-23T17:28:45Z</time>
</trkpt>
<trkpt lat="48.551566770" lon="2.447816800">
  <ele>87.000000</ele>
<time>2013-04-23T17:28:46Z</time>
</trkpt>
<trkpt lat="48.551500050" lon="2.447816800">
  <ele>88.000000</ele>
<time>2013-04-23T17:28:47Z</time>
</trkpt>
<trkpt lat="48.551433500" lon="2.447800040">
  <ele>88.000000</ele>
<time>2013-04-23T17:28:48Z</time>
</trkpt>
<trkpt lat="48.551366780" lon="2.447800040">
  <ele>88.000000</ele>
<time>2013-04-23T17:28:49Z</time>
</trkpt>
<trkpt lat="48.551300060" lon="2.447800040">
  <ele>88.000000</ele>
<time>2013-04-23T17:28:50Z</time>
</trkpt>
<trkpt lat="48.551233340" lon="2.447800040">
  <ele>88.000000</ele>
<time>2013-04-23T17:28:51Z</time>
</trkpt>
<trkpt lat="48.551166780" lon="2.447800040">
  <ele>88.000000</ele>
<time>2013-04-23T17:28:52Z</time>
</trkpt>
<trkpt lat="48.551100060" lon="2.447816800">
  <ele>88.000000</ele>
<time>2013-04-23T17:28:53Z</time>
</trkpt>
<trkpt lat="48.551033340" lon="2.447816800">
  <ele>88.000000</ele>
<time>2013-04-23T17:28:54Z</time>
</trkpt>
<trkpt lat="48.550983390" lon="2.447816800">
  <ele>87.000000</ele>
<time>2013-04-23T17:28:55Z</time>
</trkpt>
<trkpt lat="48.550916670" lon="2.447816800">
  <ele>88.000000</ele>
<time>2013-04-23T17:28:56Z</time>
</trkpt>
<trkpt lat="48.550850120" lon="2.447833400">
  <ele>88.000000</ele>
<time>2013-04-23T17:28:57Z</time>
</trkpt>
<trkpt lat="48.550783400" lon="2.447833400">
  <ele>88.000000</ele>
<time>2013-04-23T17:28:58Z</time>
</trkpt>
<trkpt lat="48.550716680" lon="2.447833400">
  <ele>88.000000</ele>
<time>2013-04-23T17:28:59Z</time>
</trkpt>
<trkpt lat="48.550650120" lon="2.447833400">
  <ele>89.000000</ele>
<time>2013-04-23T17:29:00Z</time>
</trkpt>
<trkpt lat="48.550600170" lon="2.447850160">
  <ele>89.000000</ele>
<time>2013-04-23T17:29:01Z</time>
</trkpt>
<trkpt lat="48.550533450" lon="2.447850160">
  <ele>89.000000</ele>
<time>2013-04-23T17:29:02Z</time>
</trkpt>
<trkpt lat="48.550466730" lon="2.447850160">
  <ele>89.000000</ele>
<time>2013-04-23T17:29:03Z</time>
</trkpt>
<trkpt lat="48.550400010" lon="2.447850160">
  <ele>88.000000</ele>
<time>2013-04-23T17:29:04Z</time>
</trkpt>
<trkpt lat="48.550350050" lon="2.447850160">
  <ele>88.000000</ele>
<time>2013-04-23T17:29:05Z</time>
</trkpt>
<trkpt lat="48.550283500" lon="2.447850160">
  <ele>88.000000</ele>
<time>2013-04-23T17:29:06Z</time>
</trkpt>
<trkpt lat="48.550216780" lon="2.447850160">
  <ele>88.000000</ele>
<time>2013-04-23T17:29:07Z</time>
</trkpt>
<trkpt lat="48.550150060" lon="2.447850160">
  <ele>88.000000</ele>
<time>2013-04-23T17:29:08Z</time>
</trkpt>
<trkpt lat="48.550083340" lon="2.447866760">
  <ele>88.000000</ele>
<time>2013-04-23T17:29:09Z</time>
</trkpt>
<trkpt lat="48.550016790" lon="2.447866760">
  <ele>88.000000</ele>
<time>2013-04-23T17:29:10Z</time>
</trkpt>
<trkpt lat="48.549950070" lon="2.447866760">
  <ele>88.000000</ele>
<time>2013-04-23T17:29:11Z</time>
</trkpt>
<trkpt lat="48.549883350" lon="2.447866760">
  <ele>87.000000</ele>
<time>2013-04-23T17:29:12Z</time>
</trkpt>
<trkpt lat="48.549816790" lon="2.447866760">
  <ele>87.000000</ele>
<time>2013-04-23T17:29:13Z</time>
</trkpt>
<trkpt lat="48.549750070" lon="2.447866760">
  <ele>89.000000</ele>
<time>2013-04-23T17:29:14Z</time>
</trkpt>
<trkpt lat="48.549683350" lon="2.447866760">
  <ele>88.000000</ele>
<time>2013-04-23T17:29:15Z</time>
</trkpt>
<trkpt lat="48.549616800" lon="2.447866760">
  <ele>88.000000</ele>
<time>2013-04-23T17:29:16Z</time>
</trkpt>
<trkpt lat="48.549566680" lon="2.447883360">
  <ele>88.000000</ele>
<time>2013-04-23T17:29:17Z</time>
</trkpt>
<trkpt lat="48.549500130" lon="2.447883360">
  <ele>88.000000</ele>
<time>2013-04-23T17:29:18Z</time>
</trkpt>
<trkpt lat="48.549433410" lon="2.447900120">
  <ele>88.000000</ele>
<time>2013-04-23T17:29:19Z</time>
</trkpt>
<trkpt lat="48.549366690" lon="2.447916720">
  <ele>87.000000</ele>
<time>2013-04-23T17:29:20Z</time>
</trkpt>
<trkpt lat="48.549283370" lon="2.447916720">
  <ele>88.000000</ele>
<time>2013-04-23T17:29:21Z</time>
</trkpt>
<trkpt lat="48.549216820" lon="2.447916720">
  <ele>88.000000</ele>
<time>2013-04-23T17:29:22Z</time>
</trkpt>
<trkpt lat="48.549150100" lon="2.447916720">
  <ele>88.000000</ele>
<time>2013-04-23T17:29:23Z</time>
</trkpt>
<trkpt lat="48.549083380" lon="2.447916720">
  <ele>87.000000</ele>
<time>2013-04-23T17:29:24Z</time>
</trkpt>
<trkpt lat="48.549016830" lon="2.447916720">
  <ele>87.000000</ele>
<time>2013-04-23T17:29:25Z</time>
</trkpt>
<trkpt lat="48.548950110" lon="2.447900120">
  <ele>87.000000</ele>
<time>2013-04-23T17:29:26Z</time>
</trkpt>
<trkpt lat="48.548883390" lon="2.447883360">
  <ele>87.000000</ele>
<time>2013-04-23T17:29:27Z</time>
</trkpt>
<trkpt lat="48.548816830" lon="2.447883360">
  <ele>86.000000</ele>
<time>2013-04-23T17:29:28Z</time>
</trkpt>
<trkpt lat="48.548750110" lon="2.447883360">
  <ele>87.000000</ele>
<time>2013-04-23T17:29:29Z</time>
</trkpt>
<trkpt lat="48.548666800" lon="2.447883360">
  <ele>87.000000</ele>
<time>2013-04-23T17:29:30Z</time>
</trkpt>
<trkpt lat="48.548600080" lon="2.447883360">
  <ele>88.000000</ele>
<time>2013-04-23T17:29:31Z</time>
</trkpt>
<trkpt lat="48.548533360" lon="2.447900120">
  <ele>88.000000</ele>
<time>2013-04-23T17:29:32Z</time>
</trkpt>
<trkpt lat="48.548466810" lon="2.447900120">
  <ele>88.000000</ele>
<time>2013-04-23T17:29:33Z</time>
</trkpt>
<trkpt lat="48.548400090" lon="2.447900120">
  <ele>87.000000</ele>
<time>2013-04-23T17:29:34Z</time>
</trkpt>
<trkpt lat="48.548316770" lon="2.447900120">
  <ele>87.000000</ele>
<time>2013-04-23T17:29:35Z</time>
</trkpt>
<trkpt lat="48.548250050" lon="2.447900120">
  <ele>88.000000</ele>
<time>2013-04-23T17:29:36Z</time>
</trkpt>
<trkpt lat="48.548183500" lon="2.447900120">
  <ele>88.000000</ele>
<time>2013-04-23T17:29:37Z</time>
</trkpt>
<trkpt lat="48.548116780" lon="2.447900120">
  <ele>88.000000</ele>
<time>2013-04-23T17:29:38Z</time>
</trkpt>
<trkpt lat="48.548050060" lon="2.447916720">
  <ele>88.000000</ele>
<time>2013-04-23T17:29:39Z</time>
</trkpt>
<trkpt lat="48.547983340" lon="2.447916720">
  <ele>88.000000</ele>
<time>2013-04-23T17:29:40Z</time>
</trkpt>
<trkpt lat="48.547900020" lon="2.447916720">
  <ele>88.000000</ele>
<time>2013-04-23T17:29:41Z</time>
</trkpt>
<trkpt lat="48.547833470" lon="2.447916720">
  <ele>88.000000</ele>
<time>2013-04-23T17:29:42Z</time>
</trkpt>
<trkpt lat="48.547766750" lon="2.447933480">
  <ele>88.000000</ele>
<time>2013-04-23T17:29:43Z</time>
</trkpt>
<trkpt lat="48.547700030" lon="2.447933480">
  <ele>89.000000</ele>
<time>2013-04-23T17:29:44Z</time>
</trkpt>
<trkpt lat="48.547650070" lon="2.447950080">
  <ele>89.000000</ele>
<time>2013-04-23T17:29:45Z</time>
</trkpt>
<trkpt lat="48.547583350" lon="2.447966670">
  <ele>89.000000</ele>
<time>2013-04-23T17:29:46Z</time>
</trkpt>
<trkpt lat="48.547516800" lon="2.447966670">
  <ele>89.000000</ele>
<time>2013-04-23T17:29:47Z</time>
</trkpt>
<trkpt lat="48.547433480" lon="2.447966670">
  <ele>89.000000</ele>
<time>2013-04-23T17:29:48Z</time>
</trkpt>
<trkpt lat="48.547366760" lon="2.447950080">
  <ele>89.000000</ele>
<time>2013-04-23T17:29:49Z</time>
</trkpt>
<trkpt lat="48.547300040" lon="2.447950080">
  <ele>89.000000</ele>
<time>2013-04-23T17:29:50Z</time>
</trkpt>
<trkpt lat="48.547233490" lon="2.447950080">
  <ele>88.000000</ele>
<time>2013-04-23T17:29:51Z</time>
</trkpt>
<trkpt lat="48.547166770" lon="2.447933480">
  <ele>88.000000</ele>
<time>2013-04-23T17:29:52Z</time>
</trkpt>
<trkpt lat="48.547100050" lon="2.447950080">
  <ele>87.000000</ele>
<time>2013-04-23T17:29:53Z</time>
</trkpt>
<trkpt lat="48.547033500" lon="2.447950080">
  <ele>88.000000</ele>
<time>2013-04-23T17:29:54Z</time>
</trkpt>
<trkpt lat="48.546966780" lon="2.447950080">
  <ele>88.000000</ele>
<time>2013-04-23T17:29:55Z</time>
</trkpt>
<trkpt lat="48.546900060" lon="2.447950080">
  <ele>88.000000</ele>
<time>2013-04-23T17:29:56Z</time>
</trkpt>
<trkpt lat="48.546833340" lon="2.447950080">
  <ele>87.000000</ele>
<time>2013-04-23T17:29:57Z</time>
</trkpt>
<trkpt lat="48.546783380" lon="2.447950080">
  <ele>88.000000</ele>
<time>2013-04-23T17:29:58Z</time>
</trkpt>
<trkpt lat="48.546716830" lon="2.447950080">
  <ele>87.000000</ele>
<time>2013-04-23T17:29:59Z</time>
</trkpt>
<trkpt lat="48.546650110" lon="2.447950080">
  <ele>87.000000</ele>
<time>2013-04-23T17:30:00Z</time>
</trkpt>
<trkpt lat="48.546600160" lon="2.447950080">
  <ele>88.000000</ele>
<time>2013-04-23T17:30:01Z</time>
</trkpt>
<trkpt lat="48.546533440" lon="2.447950080">
  <ele>87.000000</ele>
<time>2013-04-23T17:30:02Z</time>
</trkpt>
<trkpt lat="48.546466720" lon="2.447950080">
  <ele>88.000000</ele>
<time>2013-04-23T17:30:03Z</time>
</trkpt>
<trkpt lat="48.546416760" lon="2.447950080">
  <ele>88.000000</ele>
<time>2013-04-23T17:30:04Z</time>
</trkpt>
<trkpt lat="48.546350040" lon="2.447933480">
  <ele>88.000000</ele>
<time>2013-04-23T17:30:05Z</time>
</trkpt>
<trkpt lat="48.546300080" lon="2.447916720">
  <ele>88.000000</ele>
<time>2013-04-23T17:30:06Z</time>
</trkpt>
<trkpt lat="48.546233360" lon="2.447883360">
  <ele>88.000000</ele>
<time>2013-04-23T17:30:07Z</time>
</trkpt>
<trkpt lat="48.546183410" lon="2.447850160">
  <ele>89.000000</ele>
<time>2013-04-23T17:30:08Z</time>
</trkpt>
<trkpt lat="48.546133450" lon="2.447816800">
  <ele>88.000000</ele>
<time>2013-04-23T17:30:09Z</time>
</trkpt>
<trkpt lat="48.546083500" lon="2.447783440">
  <ele>88.000000</ele>
<time>2013-04-23T17:30:10Z</time>
</trkpt>
<trkpt lat="48.546016780" lon="2.447750080">
  <ele>88.000000</ele>
<time>2013-04-23T17:30:11Z</time>
</trkpt>
<trkpt lat="48.545966820" lon="2.447716720">
  <ele>88.000000</ele>
<time>2013-04-23T17:30:12Z</time>
</trkpt>
<trkpt lat="48.545916700" lon="2.447700130">
  <ele>88.000000</ele>
<time>2013-04-23T17:30:13Z</time>
</trkpt>
<trkpt lat="48.545850140" lon="2.447666770">
  <ele>88.000000</ele>
<time>2013-04-23T17:30:14Z</time>
</trkpt>
<trkpt lat="48.545800020" lon="2.447633410">
  <ele>88.000000</ele>
<time>2013-04-23T17:30:15Z</time>
</trkpt>
<trkpt lat="48.545750060" lon="2.447600050">
  <ele>88.000000</ele>
<time>2013-04-23T17:30:16Z</time>
</trkpt>
<trkpt lat="48.545700110" lon="2.447566690">
  <ele>88.000000</ele>
<time>2013-04-23T17:30:17Z</time>
</trkpt>
<trkpt lat="48.545650150" lon="2.447533500">
  <ele>88.000000</ele>
<time>2013-04-23T17:30:18Z</time>
</trkpt>
<trkpt lat="48.545583430" lon="2.447500140">
  <ele>88.000000</ele>
<time>2013-04-23T17:30:19Z</time>
</trkpt>
<trkpt lat="48.545533470" lon="2.447466780">
  <ele>88.000000</ele>
<time>2013-04-23T17:30:20Z</time>
</trkpt>
<trkpt lat="48.545483350" lon="2.447433420">
  <ele>88.000000</ele>
<time>2013-04-23T17:30:21Z</time>
</trkpt>
<trkpt lat="48.545416800" lon="2.447416820">
  <ele>88.000000</ele>
<time>2013-04-23T17:30:22Z</time>
</trkpt>
<trkpt lat="48.545366670" lon="2.447383460">
  <ele>89.000000</ele>
<time>2013-04-23T17:30:23Z</time>
</trkpt>
<trkpt lat="48.545316720" lon="2.447350100">
  <ele>89.000000</ele>
<time>2013-04-23T17:30:24Z</time>
</trkpt>
<trkpt lat="48.545250170" lon="2.447316740">
  <ele>89.000000</ele>
<time>2013-04-23T17:30:25Z</time>
</trkpt>
<trkpt lat="48.545200040" lon="2.447283380">
  <ele>89.000000</ele>
<time>2013-04-23T17:30:26Z</time>
</trkpt>
<trkpt lat="48.545150090" lon="2.447250020">
  <ele>88.000000</ele>
<time>2013-04-23T17:30:27Z</time>
</trkpt>
<trkpt lat="48.545083370" lon="2.447233420">
  <ele>89.000000</ele>
<time>2013-04-23T17:30:28Z</time>
</trkpt>
<trkpt lat="48.545033410" lon="2.447200060">
  <ele>89.000000</ele>
<time>2013-04-23T17:30:29Z</time>
</trkpt>
<trkpt lat="48.544983450" lon="2.447166700">
  <ele>88.000000</ele>
<time>2013-04-23T17:30:30Z</time>
</trkpt>
<trkpt lat="48.544916730" lon="2.447133340">
  <ele>88.000000</ele>
<time>2013-04-23T17:30:31Z</time>
</trkpt>
<trkpt lat="48.544866780" lon="2.447100150">
  <ele>88.000000</ele>
<time>2013-04-23T17:30:32Z</time>
</trkpt>
<trkpt lat="48.544816820" lon="2.447066790">
  <ele>88.000000</ele>
<time>2013-04-23T17:30:33Z</time>
</trkpt>
<trkpt lat="48.544750100" lon="2.447033430">
  <ele>88.000000</ele>
<time>2013-04-23T17:30:34Z</time>
</trkpt>
<trkpt lat="48.544700150" lon="2.447000070">
  <ele>89.000000</ele>
<time>2013-04-23T17:30:35Z</time>
</trkpt>
<trkpt lat="48.544633430" lon="2.446983480">
  <ele>89.000000</ele>
<time>2013-04-23T17:30:36Z</time>
</trkpt>
<trkpt lat="48.544583470" lon="2.446950120">
  <ele>89.000000</ele>
<time>2013-04-23T17:30:37Z</time>
</trkpt>
<trkpt lat="48.544533350" lon="2.446916760">
  <ele>88.000000</ele>
<time>2013-04-23T17:30:38Z</time>
</trkpt>
<trkpt lat="48.544466790" lon="2.446883400">
  <ele>88.000000</ele>
<time>2013-04-23T17:30:39Z</time>
</trkpt>
<trkpt lat="48.544416670" lon="2.446850040">
  <ele>88.000000</ele>
<time>2013-04-23T17:30:40Z</time>
</trkpt>
<trkpt lat="48.544366710" lon="2.446816680">
  <ele>87.000000</ele>
<time>2013-04-23T17:30:41Z</time>
</trkpt>
<trkpt lat="48.544300160" lon="2.446783480">
  <ele>88.000000</ele>
<time>2013-04-23T17:30:42Z</time>
</trkpt>
<trkpt lat="48.544250040" lon="2.446766720">
  <ele>88.000000</ele>
<time>2013-04-23T17:30:43Z</time>
</trkpt>
<trkpt lat="48.544200080" lon="2.446733360">
  <ele>87.000000</ele>
<time>2013-04-23T17:30:44Z</time>
</trkpt>
<trkpt lat="48.544133360" lon="2.446700170">
  <ele>87.000000</ele>
<time>2013-04-23T17:30:45Z</time>
</trkpt>
<trkpt lat="48.544083410" lon="2.446666810">
  <ele>88.000000</ele>
<time>2013-04-23T17:30:46Z</time>
</trkpt>
<trkpt lat="48.544016690" lon="2.446650040">
  <ele>88.000000</ele>
<time>2013-04-23T17:30:47Z</time>
</trkpt>
<trkpt lat="48.543966730" lon="2.446616680">
  <ele>88.000000</ele>
<time>2013-04-23T17:30:48Z</time>
</trkpt>
<trkpt lat="48.543900010" lon="2.446583490">
  <ele>88.000000</ele>
<time>2013-04-23T17:30:49Z</time>
</trkpt>
<trkpt lat="48.543850050" lon="2.446566730">
  <ele>88.000000</ele>
<time>2013-04-23T17:30:50Z</time>
</trkpt>
<trkpt lat="48.543783500" lon="2.446533370">
  <ele>88.000000</ele>
<time>2013-04-23T17:30:51Z</time>
</trkpt>
<trkpt lat="48.543733380" lon="2.446500010">
  <ele>88.000000</ele>
<time>2013-04-23T17:30:52Z</time>
</trkpt>
<trkpt lat="48.543666820" lon="2.446483410">
  <ele>87.000000</ele>
<time>2013-04-23T17:30:53Z</time>
</trkpt>
<trkpt lat="48.543616700" lon="2.446450050">
  <ele>87.000000</ele>
<time>2013-04-23T17:30:54Z</time>
</trkpt>
<trkpt lat="48.543550150" lon="2.446416690">
  <ele>87.000000</ele>
<time>2013-04-23T17:30:55Z</time>
</trkpt>
<trkpt lat="48.543500020" lon="2.446400090">
  <ele>87.000000</ele>
<time>2013-04-23T17:30:56Z</time>
</trkpt>
<trkpt lat="48.543433470" lon="2.446350140">
  <ele>87.000000</ele>
<time>2013-04-23T17:30:57Z</time>
</trkpt>
<trkpt lat="48.543383350" lon="2.446316780">
  <ele>87.000000</ele>
<time>2013-04-23T17:30:58Z</time>
</trkpt>
<trkpt lat="48.543316800" lon="2.446283420">
  <ele>88.000000</ele>
<time>2013-04-23T17:30:59Z</time>
</trkpt>
<trkpt lat="48.543266670" lon="2.446233460">
  <ele>88.000000</ele>
<time>2013-04-23T17:31:00Z</time>
</trkpt>
<trkpt lat="48.543200120" lon="2.446200100">
  <ele>88.000000</ele>
<time>2013-04-23T17:31:01Z</time>
</trkpt>
<trkpt lat="48.543150160" lon="2.446150150">
  <ele>88.000000</ele>
<time>2013-04-23T17:31:02Z</time>
</trkpt>
<trkpt lat="48.543083440" lon="2.446116790">
  <ele>88.000000</ele>
<time>2013-04-23T17:31:03Z</time>
</trkpt>
<trkpt lat="48.543016720" lon="2.446083430">
  <ele>88.000000</ele>
<time>2013-04-23T17:31:04Z</time>
</trkpt>
<trkpt lat="48.542966770" lon="2.446050070">
  <ele>88.000000</ele>
<time>2013-04-23T17:31:05Z</time>
</trkpt>
<trkpt lat="48.542900050" lon="2.446033470">
  <ele>87.000000</ele>
<time>2013-04-23T17:31:06Z</time>
</trkpt>
<trkpt lat="48.542850090" lon="2.446000110">
  <ele>88.000000</ele>
<time>2013-04-23T17:31:07Z</time>
</trkpt>
<trkpt lat="48.542783370" lon="2.445966750">
  <ele>88.000000</ele>
<time>2013-04-23T17:31:08Z</time>
</trkpt>
<trkpt lat="48.542733420" lon="2.445933390">
  <ele>88.000000</ele>
<time>2013-04-23T17:31:09Z</time>
</trkpt>
<trkpt lat="48.542666700" lon="2.445916790">
  <ele>87.000000</ele>
<time>2013-04-23T17:31:10Z</time>
</trkpt>
<trkpt lat="48.542600140" lon="2.445883430">
  <ele>88.000000</ele>
<time>2013-04-23T17:31:11Z</time>
</trkpt>
<trkpt lat="48.542550020" lon="2.445850070">
  <ele>88.000000</ele>
<time>2013-04-23T17:31:12Z</time>
</trkpt>
<trkpt lat="48.542483470" lon="2.445816710">
  <ele>88.000000</ele>
<time>2013-04-23T17:31:13Z</time>
</trkpt>
<trkpt lat="48.542416750" lon="2.445783350">
  <ele>88.000000</ele>
<time>2013-04-23T17:31:14Z</time>
</trkpt>
<trkpt lat="48.542366790" lon="2.445750160">
  <ele>88.000000</ele>
<time>2013-04-23T17:31:15Z</time>
</trkpt>
<trkpt lat="48.542300070" lon="2.445733400">
  <ele>88.000000</ele>
<time>2013-04-23T17:31:16Z</time>
</trkpt>
<trkpt lat="48.542233350" lon="2.445700040">
  <ele>88.000000</ele>
<time>2013-04-23T17:31:17Z</time>
</trkpt>
<trkpt lat="48.542183400" lon="2.445666680">
  <ele>88.000000</ele>
<time>2013-04-23T17:31:18Z</time>
</trkpt>
<trkpt lat="48.542116680" lon="2.445633490">
  <ele>88.000000</ele>
<time>2013-04-23T17:31:19Z</time>
</trkpt>
<trkpt lat="48.542066720" lon="2.445600130">
  <ele>88.000000</ele>
<time>2013-04-23T17:31:20Z</time>
</trkpt>
<trkpt lat="48.542000170" lon="2.445583360">
  <ele>87.000000</ele>
<time>2013-04-23T17:31:21Z</time>
</trkpt>
<trkpt lat="48.541950040" lon="2.445550000">
  <ele>87.000000</ele>
<time>2013-04-23T17:31:22Z</time>
</trkpt>
<trkpt lat="48.541883490" lon="2.445516810">
  <ele>88.000000</ele>
<time>2013-04-23T17:31:23Z</time>
</trkpt>
<trkpt lat="48.541833370" lon="2.445483450">
  <ele>88.000000</ele>
<time>2013-04-23T17:31:24Z</time>
</trkpt>
<trkpt lat="48.541766810" lon="2.445450090">
  <ele>88.000000</ele>
<time>2013-04-23T17:31:25Z</time>
</trkpt>
<trkpt lat="48.541716690" lon="2.445433490">
  <ele>88.000000</ele>
<time>2013-04-23T17:31:26Z</time>
</trkpt>
<trkpt lat="48.541666730" lon="2.445400130">
  <ele>87.000000</ele>
<time>2013-04-23T17:31:27Z</time>
</trkpt>
<trkpt lat="48.541600020" lon="2.445366770">
  <ele>87.000000</ele>
<time>2013-04-23T17:31:28Z</time>
</trkpt>
<trkpt lat="48.541550060" lon="2.445333410">
  <ele>88.000000</ele>
<time>2013-04-23T17:31:29Z</time>
</trkpt>
<trkpt lat="48.541500100" lon="2.445300050">
  <ele>89.000000</ele>
<time>2013-04-23T17:31:30Z</time>
</trkpt>
<trkpt lat="48.541433380" lon="2.445283460">
  <ele>88.000000</ele>
<time>2013-04-23T17:31:31Z</time>
</trkpt>
<trkpt lat="48.541383430" lon="2.445250100">
  <ele>88.000000</ele>
<time>2013-04-23T17:31:32Z</time>
</trkpt>
<trkpt lat="48.541316710" lon="2.445216740">
  <ele>88.000000</ele>
<time>2013-04-23T17:31:33Z</time>
</trkpt>
<trkpt lat="48.541266750" lon="2.445183380">
  <ele>88.000000</ele>
<time>2013-04-23T17:31:34Z</time>
</trkpt>
<trkpt lat="48.541216790" lon="2.445133420">
  <ele>88.000000</ele>
<time>2013-04-23T17:31:35Z</time>
</trkpt>
<trkpt lat="48.541166670" lon="2.445083470">
  <ele>88.000000</ele>
<time>2013-04-23T17:31:36Z</time>
</trkpt>
<trkpt lat="48.541116710" lon="2.445033340">
  <ele>88.000000</ele>
<time>2013-04-23T17:31:37Z</time>
</trkpt>
<trkpt lat="48.541066760" lon="2.444983390">
  <ele>87.000000</ele>
<time>2013-04-23T17:31:38Z</time>
</trkpt>
<trkpt lat="48.541033400" lon="2.444933430">
  <ele>86.000000</ele>
<time>2013-04-23T17:31:39Z</time>
</trkpt>
<trkpt lat="48.540983440" lon="2.444883470">
  <ele>87.000000</ele>
<time>2013-04-23T17:31:40Z</time>
</trkpt>
<trkpt lat="48.540950080" lon="2.444816750">
  <ele>87.000000</ele>
<time>2013-04-23T17:31:41Z</time>
</trkpt>
<trkpt lat="48.540900130" lon="2.444766800">
  <ele>88.000000</ele>
<time>2013-04-23T17:31:42Z</time>
</trkpt>
<trkpt lat="48.540866770" lon="2.444700080">
  <ele>88.000000</ele>
<time>2013-04-23T17:31:43Z</time>
</trkpt>
<trkpt lat="48.540833410" lon="2.444650120">
  <ele>88.000000</ele>
<time>2013-04-23T17:31:44Z</time>
</trkpt>
<trkpt lat="48.540800050" lon="2.444583400">
  <ele>88.000000</ele>
<time>2013-04-23T17:31:45Z</time>
</trkpt>
<trkpt lat="48.540750090" lon="2.444533440">
  <ele>88.000000</ele>
<time>2013-04-23T17:31:46Z</time>
</trkpt>
<trkpt lat="48.540716730" lon="2.444466720">
  <ele>88.000000</ele>
<time>2013-04-23T17:31:47Z</time>
</trkpt>
<trkpt lat="48.540666770" lon="2.444416770">
  <ele>88.000000</ele>
<time>2013-04-23T17:31:48Z</time>
</trkpt>
<trkpt lat="48.540633410" lon="2.444366810">
  <ele>88.000000</ele>
<time>2013-04-23T17:31:49Z</time>
</trkpt>
<trkpt lat="48.540583460" lon="2.444316690">
  <ele>89.000000</ele>
<time>2013-04-23T17:31:50Z</time>
</trkpt>
<trkpt lat="48.540550100" lon="2.444250140">
  <ele>89.000000</ele>
<time>2013-04-23T17:31:51Z</time>
</trkpt>
<trkpt lat="48.540500140" lon="2.444200010">
  <ele>88.000000</ele>
<time>2013-04-23T17:31:52Z</time>
</trkpt>
<trkpt lat="48.540466780" lon="2.444150060">
  <ele>88.000000</ele>
<time>2013-04-23T17:31:53Z</time>
</trkpt>
<trkpt lat="48.540416830" lon="2.444083340">
  <ele>88.000000</ele>
<time>2013-04-23T17:31:54Z</time>
</trkpt>
<trkpt lat="48.540366700" lon="2.444033380">
  <ele>89.000000</ele>
<time>2013-04-23T17:31:55Z</time>
</trkpt>
<trkpt lat="48.540333340" lon="2.443983420">
  <ele>89.000000</ele>
<time>2013-04-23T17:31:56Z</time>
</trkpt>
<trkpt lat="48.540283390" lon="2.443933470">
  <ele>89.000000</ele>
<time>2013-04-23T17:31:57Z</time>
</trkpt>
<trkpt lat="48.540233430" lon="2.443883340">
  <ele>89.000000</ele>
<time>2013-04-23T17:31:58Z</time>
</trkpt>
<trkpt lat="48.540200070" lon="2.443816790">
  <ele>89.000000</ele>
<time>2013-04-23T17:31:59Z</time>
</trkpt>
<trkpt lat="48.540150110" lon="2.443766670">
  <ele>88.000000</ele>
<time>2013-04-23T17:32:00Z</time>
</trkpt>
<trkpt lat="48.540100160" lon="2.443716710">
  <ele>88.000000</ele>
<time>2013-04-23T17:32:01Z</time>
</trkpt>
<trkpt lat="48.540066800" lon="2.443666760">
  <ele>88.000000</ele>
<time>2013-04-23T17:32:02Z</time>
</trkpt>
<trkpt lat="48.540016670" lon="2.443616800">
  <ele>89.000000</ele>
<time>2013-04-23T17:32:03Z</time>
</trkpt>
<trkpt lat="48.539966720" lon="2.443566680">
  <ele>89.000000</ele>
<time>2013-04-23T17:32:04Z</time>
</trkpt>
<trkpt lat="48.539933360" lon="2.443516720">
  <ele>89.000000</ele>
<time>2013-04-23T17:32:05Z</time>
</trkpt>
<trkpt lat="48.539883400" lon="2.443450000">
  <ele>88.000000</ele>
<time>2013-04-23T17:32:06Z</time>
</trkpt>
<trkpt lat="48.539833450" lon="2.443400040">
  <ele>89.000000</ele>
<time>2013-04-23T17:32:07Z</time>
</trkpt>
<trkpt lat="48.539783490" lon="2.443350090">
  <ele>89.000000</ele>
<time>2013-04-23T17:32:08Z</time>
</trkpt>
<trkpt lat="48.539750130" lon="2.443300130">
  <ele>88.000000</ele>
<time>2013-04-23T17:32:09Z</time>
</trkpt>
<trkpt lat="48.539700010" lon="2.443250010">
  <ele>88.000000</ele>
<time>2013-04-23T17:32:10Z</time>
</trkpt>
<trkpt lat="48.539650050" lon="2.443200050">
  <ele>88.000000</ele>
<time>2013-04-23T17:32:11Z</time>
</trkpt>
<trkpt lat="48.539600090" lon="2.443150100">
  <ele>88.000000</ele>
<time>2013-04-23T17:32:12Z</time>
</trkpt>
<trkpt lat="48.539566730" lon="2.443100140">
  <ele>88.000000</ele>
<time>2013-04-23T17:32:13Z</time>
</trkpt>
<trkpt lat="48.539516780" lon="2.443066780">
  <ele>89.000000</ele>
<time>2013-04-23T17:32:14Z</time>
</trkpt>
<trkpt lat="48.539466820" lon="2.443016820">
  <ele>88.000000</ele>
<time>2013-04-23T17:32:15Z</time>
</trkpt>
<trkpt lat="48.539433460" lon="2.442950100">
  <ele>88.000000</ele>
<time>2013-04-23T17:32:16Z</time>
</trkpt>
<trkpt lat="48.539400100" lon="2.442883380">
  <ele>88.000000</ele>
<time>2013-04-23T17:32:17Z</time>
</trkpt>
<trkpt lat="48.539350140" lon="2.442833430">
  <ele>88.000000</ele>
<time>2013-04-23T17:32:18Z</time>
</trkpt>
<trkpt lat="48.539300020" lon="2.442783470">
  <ele>88.000000</ele>
<time>2013-04-23T17:32:19Z</time>
</trkpt>
<trkpt lat="48.539266830" lon="2.442733350">
  <ele>88.000000</ele>
<time>2013-04-23T17:32:20Z</time>
</trkpt>
<trkpt lat="48.539216700" lon="2.442666800">
  <ele>88.000000</ele>
<time>2013-04-23T17:32:21Z</time>
</trkpt>
<trkpt lat="48.539166750" lon="2.442616670">
  <ele>88.000000</ele>
<time>2013-04-23T17:32:22Z</time>
</trkpt>
<trkpt lat="48.539116790" lon="2.442566720">
  <ele>88.000000</ele>
<time>2013-04-23T17:32:23Z</time>
</trkpt>
<trkpt lat="48.539066670" lon="2.442516760">
  <ele>87.000000</ele>
<time>2013-04-23T17:32:24Z</time>
</trkpt>
<trkpt lat="48.539016710" lon="2.442466800">
  <ele>87.000000</ele>
<time>2013-04-23T17:32:25Z</time>
</trkpt>
<trkpt lat="48.538983350" lon="2.442400080">
  <ele>88.000000</ele>
<time>2013-04-23T17:32:26Z</time>
</trkpt>
<trkpt lat="48.538933400" lon="2.442350130">
  <ele>88.000000</ele>
<time>2013-04-23T17:32:27Z</time>
</trkpt>
<trkpt lat="48.538883440" lon="2.442300000">
  <ele>88.000000</ele>
<time>2013-04-23T17:32:28Z</time>
</trkpt>
<trkpt lat="48.538833480" lon="2.442250050">
  <ele>88.000000</ele>
<time>2013-04-23T17:32:29Z</time>
</trkpt>
<trkpt lat="48.538800120" lon="2.442183490">
  <ele>89.000000</ele>
<time>2013-04-23T17:32:30Z</time>
</trkpt>
<trkpt lat="48.538750000" lon="2.442133370">
  <ele>88.000000</ele>
<time>2013-04-23T17:32:31Z</time>
</trkpt>
<trkpt lat="48.538700040" lon="2.442083410">
  <ele>88.000000</ele>
<time>2013-04-23T17:32:32Z</time>
</trkpt>
<trkpt lat="48.538650090" lon="2.442033460">
  <ele>88.000000</ele>
<time>2013-04-23T17:32:33Z</time>
</trkpt>
<trkpt lat="48.538600130" lon="2.441983330">
  <ele>88.000000</ele>
<time>2013-04-23T17:32:34Z</time>
</trkpt>
<trkpt lat="48.538550010" lon="2.441916780">
  <ele>88.000000</ele>
<time>2013-04-23T17:32:35Z</time>
</trkpt>
<trkpt lat="48.538516820" lon="2.441883420">
  <ele>87.000000</ele>
<time>2013-04-23T17:32:36Z</time>
</trkpt>
<trkpt lat="48.538466690" lon="2.441833470">
  <ele>87.000000</ele>
<time>2013-04-23T17:32:37Z</time>
</trkpt>
<trkpt lat="48.538416740" lon="2.441783340">
  <ele>87.000000</ele>
<time>2013-04-23T17:32:38Z</time>
</trkpt>
<trkpt lat="48.538366780" lon="2.441733390">
  <ele>88.000000</ele>
<time>2013-04-23T17:32:39Z</time>
</trkpt>
<trkpt lat="48.538333420" lon="2.441683430">
  <ele>88.000000</ele>
<time>2013-04-23T17:32:40Z</time>
</trkpt>
<trkpt lat="48.538283460" lon="2.441616710">
  <ele>88.000000</ele>
<time>2013-04-23T17:32:41Z</time>
</trkpt>
<trkpt lat="48.538233340" lon="2.441566750">
  <ele>89.000000</ele>
<time>2013-04-23T17:32:42Z</time>
</trkpt>
<trkpt lat="48.538183380" lon="2.441516800">
  <ele>89.000000</ele>
<time>2013-04-23T17:32:43Z</time>
</trkpt>
<trkpt lat="48.538150020" lon="2.441466670">
  <ele>89.000000</ele>
<time>2013-04-23T17:32:44Z</time>
</trkpt>
<trkpt lat="48.538100070" lon="2.441416720">
  <ele>89.000000</ele>
<time>2013-04-23T17:32:45Z</time>
</trkpt>
<trkpt lat="48.538066710" lon="2.441366760">
  <ele>89.000000</ele>
<time>2013-04-23T17:32:46Z</time>
</trkpt>
<trkpt lat="48.538016750" lon="2.441300040">
  <ele>89.000000</ele>
<time>2013-04-23T17:32:47Z</time>
</trkpt>
<trkpt lat="48.537966800" lon="2.441266680">
  <ele>89.000000</ele>
<time>2013-04-23T17:32:48Z</time>
</trkpt>
<trkpt lat="48.537933440" lon="2.441216730">
  <ele>89.000000</ele>
<time>2013-04-23T17:32:49Z</time>
</trkpt>
<trkpt lat="48.537883480" lon="2.441183370">
  <ele>90.000000</ele>
<time>2013-04-23T17:32:50Z</time>
</trkpt>
<trkpt lat="48.537833360" lon="2.441150010">
  <ele>89.000000</ele>
<time>2013-04-23T17:32:51Z</time>
</trkpt>
<trkpt lat="48.537783400" lon="2.441116810">
  <ele>89.000000</ele>
<time>2013-04-23T17:32:52Z</time>
</trkpt>
<trkpt lat="48.537716680" lon="2.441100050">
  <ele>89.000000</ele>
<time>2013-04-23T17:32:53Z</time>
</trkpt>
<trkpt lat="48.537666720" lon="2.441066690">
  <ele>89.000000</ele>
<time>2013-04-23T17:32:54Z</time>
</trkpt>
<trkpt lat="48.537616770" lon="2.441050090">
  <ele>89.000000</ele>
<time>2013-04-23T17:32:55Z</time>
</trkpt>
<trkpt lat="48.537566810" lon="2.441016730">
  <ele>89.000000</ele>
<time>2013-04-23T17:32:56Z</time>
</trkpt>
<trkpt lat="48.537516690" lon="2.441000140">
  <ele>88.000000</ele>
<time>2013-04-23T17:32:57Z</time>
</trkpt>
<trkpt lat="48.537450130" lon="2.440966780">
  <ele>88.000000</ele>
<time>2013-04-23T17:32:58Z</time>
</trkpt>
<trkpt lat="48.537400010" lon="2.440950010">
  <ele>88.000000</ele>
<time>2013-04-23T17:32:59Z</time>
</trkpt>
<trkpt lat="48.537350050" lon="2.440916820">
  <ele>88.000000</ele>
<time>2013-04-23T17:33:00Z</time>
</trkpt>
<trkpt lat="48.537300100" lon="2.440900060">
  <ele>88.000000</ele>
<time>2013-04-23T17:33:01Z</time>
</trkpt>
<trkpt lat="48.537233380" lon="2.440883460">
  <ele>88.000000</ele>
<time>2013-04-23T17:33:02Z</time>
</trkpt>
<trkpt lat="48.537183420" lon="2.440866700">
  <ele>88.000000</ele>
<time>2013-04-23T17:33:03Z</time>
</trkpt>
<trkpt lat="48.537133470" lon="2.440833340">
  <ele>87.000000</ele>
<time>2013-04-23T17:33:04Z</time>
</trkpt>
<trkpt lat="48.537066750" lon="2.440816740">
  <ele>87.000000</ele>
<time>2013-04-23T17:33:05Z</time>
</trkpt>
<trkpt lat="48.537016790" lon="2.440800150">
  <ele>87.000000</ele>
<time>2013-04-23T17:33:06Z</time>
</trkpt>
<trkpt lat="48.536966830" lon="2.440766790">
  <ele>87.000000</ele>
<time>2013-04-23T17:33:07Z</time>
</trkpt>
<trkpt lat="48.536916710" lon="2.440750020">
  <ele>87.000000</ele>
<time>2013-04-23T17:33:08Z</time>
</trkpt>
<trkpt lat="48.536850160" lon="2.440716830">
  <ele>87.000000</ele>
<time>2013-04-23T17:33:09Z</time>
</trkpt>
<trkpt lat="48.536800030" lon="2.440700070">
  <ele>87.000000</ele>
<time>2013-04-23T17:33:10Z</time>
</trkpt>
<trkpt lat="48.536750080" lon="2.440666710">
  <ele>87.000000</ele>
<time>2013-04-23T17:33:11Z</time>
</trkpt>
<trkpt lat="48.536700120" lon="2.440650110">
  <ele>87.000000</ele>
<time>2013-04-23T17:33:12Z</time>
</trkpt>
<trkpt lat="48.536650170" lon="2.440616750">
  <ele>87.000000</ele>
<time>2013-04-23T17:33:13Z</time>
</trkpt>
<trkpt lat="48.536600040" lon="2.440600150">
  <ele>87.000000</ele>
<time>2013-04-23T17:33:14Z</time>
</trkpt>
<trkpt lat="48.536533490" lon="2.440566790">
  <ele>87.000000</ele>
<time>2013-04-23T17:33:15Z</time>
</trkpt>
<trkpt lat="48.536483370" lon="2.440550030">
  <ele>86.000000</ele>
<time>2013-04-23T17:33:16Z</time>
</trkpt>
<trkpt lat="48.536433410" lon="2.440516670">
  <ele>87.000000</ele>
<time>2013-04-23T17:33:17Z</time>
</trkpt>
<trkpt lat="48.536383450" lon="2.440500070">
  <ele>88.000000</ele>
<time>2013-04-23T17:33:18Z</time>
</trkpt>
<trkpt lat="48.536333500" lon="2.440466710">
  <ele>88.000000</ele>
<time>2013-04-23T17:33:19Z</time>
</trkpt>
<trkpt lat="48.536283370" lon="2.440450120">
  <ele>87.000000</ele>
<time>2013-04-23T17:33:20Z</time>
</trkpt>
<trkpt lat="48.536233420" lon="2.440416760">
  <ele>87.000000</ele>
<time>2013-04-23T17:33:21Z</time>
</trkpt>
<trkpt lat="48.536183460" lon="2.440400160">
  <ele>87.000000</ele>
<time>2013-04-23T17:33:22Z</time>
</trkpt>
<trkpt lat="48.536133340" lon="2.440366800">
  <ele>88.000000</ele>
<time>2013-04-23T17:33:23Z</time>
</trkpt>
<trkpt lat="48.536066790" lon="2.440350040">
  <ele>88.000000</ele>
<time>2013-04-23T17:33:24Z</time>
</trkpt>
<trkpt lat="48.536016830" lon="2.440333440">
  <ele>88.000000</ele>
<time>2013-04-23T17:33:25Z</time>
</trkpt>
<trkpt lat="48.535966710" lon="2.440300080">
  <ele>88.000000</ele>
<time>2013-04-23T17:33:26Z</time>
</trkpt>
<trkpt lat="48.535916750" lon="2.440283480">
  <ele>88.000000</ele>
<time>2013-04-23T17:33:27Z</time>
</trkpt>
<trkpt lat="48.535866790" lon="2.440266720">
  <ele>88.000000</ele>
<time>2013-04-23T17:33:28Z</time>
</trkpt>
<trkpt lat="48.535816670" lon="2.440233360">
  <ele>88.000000</ele>
<time>2013-04-23T17:33:29Z</time>
</trkpt>
<trkpt lat="48.535766710" lon="2.440216760">
  <ele>88.000000</ele>
<time>2013-04-23T17:33:30Z</time>
</trkpt>
<trkpt lat="48.535700160" lon="2.440200000">
  <ele>88.000000</ele>
<time>2013-04-23T17:33:31Z</time>
</trkpt>
<trkpt lat="48.535650040" lon="2.440183400">
  <ele>89.000000</ele>
<time>2013-04-23T17:33:32Z</time>
</trkpt>
<trkpt lat="48.535600080" lon="2.440166810">
  <ele>88.000000</ele>
<time>2013-04-23T17:33:33Z</time>
</trkpt>
<trkpt lat="48.535566720" lon="2.440150040">
  <ele>87.000000</ele>
<time>2013-04-23T17:33:34Z</time>
</trkpt>
<trkpt lat="48.535500000" lon="2.440066730">
  <ele>87.000000</ele>
<time>2013-04-23T17:33:36Z</time>
</trkpt>
<trkpt lat="48.535466810" lon="2.439983410">
  <ele>87.000000</ele>
<time>2013-04-23T17:33:38Z</time>
</trkpt>
<trkpt lat="48.535466810" lon="2.439916690">
  <ele>87.000000</ele>
<time>2013-04-23T17:33:39Z</time>
</trkpt>
<trkpt lat="48.535433450" lon="2.439850140">
  <ele>87.000000</ele>
<time>2013-04-23T17:33:40Z</time>
</trkpt>
<trkpt lat="48.535400090" lon="2.439766820">
  <ele>88.000000</ele>
<time>2013-04-23T17:33:41Z</time>
</trkpt>
<trkpt lat="48.535350130" lon="2.439733460">
  <ele>87.000000</ele>
<time>2013-04-23T17:33:42Z</time>
</trkpt>
<trkpt lat="48.535300010" lon="2.439716700">
  <ele>87.000000</ele>
<time>2013-04-23T17:33:43Z</time>
</trkpt>
<trkpt lat="48.535250050" lon="2.439700100">
  <ele>87.000000</ele>
<time>2013-04-23T17:33:44Z</time>
</trkpt>
<trkpt lat="48.535183500" lon="2.439683340">
  <ele>87.000000</ele>
<time>2013-04-23T17:33:45Z</time>
</trkpt>
<trkpt lat="48.535116780" lon="2.439666740">
  <ele>87.000000</ele>
<time>2013-04-23T17:33:46Z</time>
</trkpt>
<trkpt lat="48.535066820" lon="2.439633380">
  <ele>87.000000</ele>
<time>2013-04-23T17:33:47Z</time>
</trkpt>
<trkpt lat="48.535000100" lon="2.439600020">
  <ele>87.000000</ele>
<time>2013-04-23T17:33:48Z</time>
</trkpt>
<trkpt lat="48.534933380" lon="2.439583430">
  <ele>87.000000</ele>
<time>2013-04-23T17:33:49Z</time>
</trkpt>
<trkpt lat="48.534850070" lon="2.439550070">
  <ele>87.000000</ele>
<time>2013-04-23T17:33:50Z</time>
</trkpt>
<trkpt lat="48.534783350" lon="2.439500110">
  <ele>86.000000</ele>
<time>2013-04-23T17:33:51Z</time>
</trkpt>
<trkpt lat="48.534700030" lon="2.439466750">
  <ele>86.000000</ele>
<time>2013-04-23T17:33:52Z</time>
</trkpt>
<trkpt lat="48.534616720" lon="2.439450160">
  <ele>86.000000</ele>
<time>2013-04-23T17:33:53Z</time>
</trkpt>
<trkpt lat="48.534533400" lon="2.439500110">
  <ele>86.000000</ele>
<time>2013-04-23T17:33:54Z</time>
</trkpt>
<trkpt lat="48.534483440" lon="2.439600020">
  <ele>86.000000</ele>
<time>2013-04-23T17:33:55Z</time>
</trkpt>
<trkpt lat="48.534450080" lon="2.439700100">
  <ele>86.000000</ele>
<time>2013-04-23T17:33:56Z</time>
</trkpt>
<trkpt lat="48.534433490" lon="2.439833380">
  <ele>86.000000</ele>
<time>2013-04-23T17:33:57Z</time>
</trkpt>
<trkpt lat="48.534416720" lon="2.439950050">
  <ele>86.000000</ele>
<time>2013-04-23T17:33:58Z</time>
</trkpt>
<trkpt lat="48.534383360" lon="2.440066730">
  <ele>86.000000</ele>
<time>2013-04-23T17:33:59Z</time>
</trkpt>
<trkpt lat="48.534366770" lon="2.440183400">
  <ele>87.000000</ele>
<time>2013-04-23T17:34:00Z</time>
</trkpt>
<trkpt lat="48.534333410" lon="2.440300080">
  <ele>86.000000</ele>
<time>2013-04-23T17:34:01Z</time>
</trkpt>
<trkpt lat="48.534316810" lon="2.440416760">
  <ele>87.000000</ele>
<time>2013-04-23T17:34:02Z</time>
</trkpt>
<trkpt lat="48.534300050" lon="2.440533430">
  <ele>87.000000</ele>
<time>2013-04-23T17:34:03Z</time>
</trkpt>
<trkpt lat="48.534283450" lon="2.440650110">
  <ele>87.000000</ele>
<time>2013-04-23T17:34:04Z</time>
</trkpt>
<trkpt lat="48.534250090" lon="2.440783380">
  <ele>87.000000</ele>
<time>2013-04-23T17:34:05Z</time>
</trkpt>
<trkpt lat="48.534216730" lon="2.440900060">
  <ele>87.000000</ele>
<time>2013-04-23T17:34:06Z</time>
</trkpt>
<trkpt lat="48.534200140" lon="2.441016730">
  <ele>87.000000</ele>
<time>2013-04-23T17:34:07Z</time>
</trkpt>
<trkpt lat="48.534166780" lon="2.441116810">
  <ele>87.000000</ele>
<time>2013-04-23T17:34:08Z</time>
</trkpt>
<trkpt lat="48.534150010" lon="2.441233490">
  <ele>87.000000</ele>
<time>2013-04-23T17:34:09Z</time>
</trkpt>
<trkpt lat="48.534116820" lon="2.441350170">
  <ele>87.000000</ele>
<time>2013-04-23T17:34:10Z</time>
</trkpt>
<trkpt lat="48.534100060" lon="2.441450080">
  <ele>87.000000</ele>
<time>2013-04-23T17:34:11Z</time>
</trkpt>
<trkpt lat="48.534066700" lon="2.441566750">
  <ele>87.000000</ele>
<time>2013-04-23T17:34:12Z</time>
</trkpt>
<trkpt lat="48.534050100" lon="2.441666830">
  <ele>87.000000</ele>
<time>2013-04-23T17:34:13Z</time>
</trkpt>
<trkpt lat="48.534033340" lon="2.441783340">
  <ele>87.000000</ele>
<time>2013-04-23T17:34:14Z</time>
</trkpt>
<trkpt lat="48.534000140" lon="2.441883420">
  <ele>87.000000</ele>
<time>2013-04-23T17:34:15Z</time>
</trkpt>
<trkpt lat="48.533983380" lon="2.442000100">
  <ele>87.000000</ele>
<time>2013-04-23T17:34:16Z</time>
</trkpt>
<trkpt lat="48.533966780" lon="2.442116770">
  <ele>87.000000</ele>
<time>2013-04-23T17:34:17Z</time>
</trkpt>
<trkpt lat="48.533933420" lon="2.442233450">
  <ele>87.000000</ele>
<time>2013-04-23T17:34:18Z</time>
</trkpt>
<trkpt lat="48.533916830" lon="2.442366720">
  <ele>87.000000</ele>
<time>2013-04-23T17:34:19Z</time>
</trkpt>
<trkpt lat="48.533883470" lon="2.442483400">
  <ele>87.000000</ele>
<time>2013-04-23T17:34:20Z</time>
</trkpt>
<trkpt lat="48.533866700" lon="2.442616670">
  <ele>87.000000</ele>
<time>2013-04-23T17:34:21Z</time>
</trkpt>
<trkpt lat="48.533833340" lon="2.442733350">
  <ele>87.000000</ele>
<time>2013-04-23T17:34:22Z</time>
</trkpt>
<trkpt lat="48.533800150" lon="2.442866790">
  <ele>86.000000</ele>
<time>2013-04-23T17:34:23Z</time>
</trkpt>
<trkpt lat="48.533783390" lon="2.443000060">
  <ele>86.000000</ele>
<time>2013-04-23T17:34:24Z</time>
</trkpt>
<trkpt lat="48.533750030" lon="2.443116740">
  <ele>87.000000</ele>
<time>2013-04-23T17:34:25Z</time>
</trkpt>
<trkpt lat="48.533733430" lon="2.443250010">
  <ele>87.000000</ele>
<time>2013-04-23T17:34:26Z</time>
</trkpt>
<trkpt lat="48.533700070" lon="2.443366680">
  <ele>86.000000</ele>
<time>2013-04-23T17:34:27Z</time>
</trkpt>
<trkpt lat="48.533683480" lon="2.443500120">
  <ele>86.000000</ele>
<time>2013-04-23T17:34:28Z</time>
</trkpt>
<trkpt lat="48.533650120" lon="2.443633400">
  <ele>86.000000</ele>
<time>2013-04-23T17:34:29Z</time>
</trkpt>
<trkpt lat="48.533633350" lon="2.443750070">
  <ele>86.000000</ele>
<time>2013-04-23T17:34:30Z</time>
</trkpt>
<trkpt lat="48.533616760" lon="2.443883340">
  <ele>86.000000</ele>
<time>2013-04-23T17:34:31Z</time>
</trkpt>
<trkpt lat="48.533633350" lon="2.444000020">
  <ele>87.000000</ele>
<time>2013-04-23T17:34:32Z</time>
</trkpt>
<trkpt lat="48.533683480" lon="2.444100100">
  <ele>86.000000</ele>
<time>2013-04-23T17:34:33Z</time>
</trkpt>
<trkpt lat="48.533766790" lon="2.444166820">
  <ele>86.000000</ele>
<time>2013-04-23T17:34:34Z</time>
</trkpt>
<trkpt lat="48.533850110" lon="2.444216780">
  <ele>86.000000</ele>
<time>2013-04-23T17:34:35Z</time>
</trkpt>
<trkpt lat="48.533916830" lon="2.444250140">
  <ele>86.000000</ele>
<time>2013-04-23T17:34:36Z</time>
</trkpt>
<trkpt lat="48.534000140" lon="2.444283500">
  <ele>86.000000</ele>
<time>2013-04-23T17:34:37Z</time>
</trkpt>
<trkpt lat="48.534083460" lon="2.444316690">
  <ele>86.000000</ele>
<time>2013-04-23T17:34:38Z</time>
</trkpt>
<trkpt lat="48.534150010" lon="2.444350050">
  <ele>86.000000</ele>
<time>2013-04-23T17:34:39Z</time>
</trkpt>
<trkpt lat="48.534216730" lon="2.444416770">
  <ele>86.000000</ele>
<time>2013-04-23T17:34:40Z</time>
</trkpt>
<trkpt lat="48.534266690" lon="2.444500080">
  <ele>86.000000</ele>
<time>2013-04-23T17:34:41Z</time>
</trkpt>
<trkpt lat="48.534283450" lon="2.444600160">
  <ele>86.000000</ele>
<time>2013-04-23T17:34:42Z</time>
</trkpt>
<trkpt lat="48.534266690" lon="2.444683480">
  <ele>86.000000</ele>
<time>2013-04-23T17:34:43Z</time>
</trkpt>
<trkpt lat="48.534250090" lon="2.444783390">
  <ele>86.000000</ele>
<time>2013-04-23T17:34:44Z</time>
</trkpt>
<trkpt lat="48.534250090" lon="2.444866710">
  <ele>87.000000</ele>
<time>2013-04-23T17:34:45Z</time>
</trkpt>
<trkpt lat="48.534233500" lon="2.444933430">
  <ele>87.000000</ele>
<time>2013-04-23T17:34:46Z</time>
</trkpt>
<trkpt lat="48.534216730" lon="2.444983390">
  <ele>87.000000</ele>
<time>2013-04-23T17:34:47Z</time>
</trkpt>
<trkpt lat="48.534216730" lon="2.444983390">
  <ele>87.000000</ele>
<time>2013-04-23T17:34:47Z</time>
</trkpt>
<trkpt lat="48.534183370" lon="2.445083470">
  <ele>89.000000</ele>
<time>2013-04-23T17:34:49Z</time>
</trkpt>
</trkseg>
</trk>
</gpx>
